+7 (495) 720-06-54
Пн-пт: с 9:00 до 21:00, сб-вс: 10:00-18:00
Мы принимаем он-лайн заказы 24 часа*
 

Metar unkl: Документ не найден

0

Красноярск — аэропорт Емельяново. День первый — ветренный.

5 марта 2013 года.

По своей доброй традиции я четвертый раз подряд прибыл в славный город Красноярск для того, чтобы побродить по перрону местного аэропорта Емельяново, поснимать красивых железных птичек и конечно же пообщаться с друзьями. На этот раз компанию мне составили соратники, Алексей из Томска и igorek91 из Тобольска. Прогнозы погоды обещали интересную погоду, -1 в первый день и -20 во второй, прогнозы не обманули погода выдалась весьма интересной. В общем что из всего этого получилось, вы и узнаете из этого поста.
Все картинки, как обычно кликабельны до 1200 пикс.

Усаживаемся поудобнее и..
1. ВПП 29, посадку разрешаю!

День начался утром на ЖД вокзале, где нас встретила alisalisovskaya которая стала нашим гидом и проводником по городу. Правда полноценно погулять и полюбоваться достопримечательностями Красноярска не удалось. Как только мы добрались до центра города поднялся сильный ветер и началась метель.. Пришлось опасть в кафейне для завтрака и построения догадок, что ж мы будем делать в аэропорту в такую погоду???  Погуляв по центру города до положенного времени, дождались другого старого соратника по борьбе — Серегу. Теперь все в сборе, можно ехать в аэропорт. Прибыв, поселились в аэропортовой гостинице и пошли на точку сбора гадая сколько же человек решится поучаствовать в этой авантюре в такую погоду:
05-03-201308:00METAR UNKL 050800Z 27015G21MPS 3800 BLSN SCT026CB BKN170 M10/M19 Q1015 TEMPO 26015G20MPS 0700 +SHSN BLSN RMK QFE736 29////55
[Расшифровка METARa]

Location: UNKL

Day of month: 05

Time: 08:00 UTC

Wind:  True direction = 270 degrees, Speed: 15 m/s, with Gusts of maximum speed 21 m/s

Visibility: 3800 m

Weather: Snow

Clouds: Scattered , at 2600 feet above aerodrome level, cumulonimbus

Clouds: Broken sky , at 17000 feet above aerodrome level

Temperature: -10 degrees Celsius

Dewpoint: -19 degrees Celsius

QNH (Sea-level pressure): 1015 hPa

The following weather phenomena are expected to arise temporarily:

Wind:  True direction = 260 degrees, Speed: 15 m/s, with Gusts of maximum speed 20 m/s

Visibility: 700 m

Weather: Strong Showers of Snow

Weather: Snow

2. Временами это выглядело вот так, временами получше, но дуло постоянно и сильно. Да, кстати такие жилеточки стали приятным подарком от аэропорта Емельяново.

3. Выгребая снег из самых разнообразных мест… (бленда, видоискатель камеры, кнопки, все было залеплено снегом, снег прорывался даже внутрь нашей «Газели», несмотря на закрытые двери и окна) продолжаем снимать!
VQ-BES отдыхает перед вечерним вылетом в Пекин. Самолет на ветру ощутимо качает.

4. Идет посадка пассажиров вылетающих в Новосибирск.

5. Тяжеленный тягач Schopf наверное единственный кто сейчас чувствует себя уверенно на перроне. Его то уж точно не сдует.

6. Наш транспорт. ШНива FOLLOW ME и 2 Газели фолловеров.

7. АТРочка запускается на Новосибирск.

8.

9.

10.

11. Серёга решил спасаться от ветра с помощью такой замечательной маски!

12. Вторая ATRka Нордстара в тот день так никуда и не полетела. Внимательный зритель может заметить другую АТРку в правой части кадра. Это ATR-42 авиакомпании ЮТэйр, борясь с ветром заходит на посадку.

13. еще одна картинка иллюстрирующая размещенный выше METAR

14. Глядя на этот кадр со встречающим техником сразу вспоминается бородатейший анекдот про «Как? Уйти из авиации???»

15. Заканчивается рейс Сургут-Игарка-Красноярск. Борт заруливает на стоянку, по указанию встречающего с картинки 14.

16. Далее, Люфтганза Карго засобиралась на вылет и мы полезли на балкончик диспетчерской вышки, чтобы снять впечатляющий взлет.

17. MD-11F Lufthansa Cargo, D-ALCM. Носом на Франкфурт-на-Майне.

18. Ветер беспощадно раскачивает и такие огромные машины

19.

20.

21. Ну а раз залезли на господствующую высоту, нельзя упускать шанс поснимать все окрестности.
Стеклянная теплица международного терминала.

22. Уголок Германии

23.

24. Во второй части повествования этот Ту-134 порадует нас своим вылетом 🙂 ждите продолжения!

25. Эти самолеты уже никуда не полетят.. Небольшой шанс на продолжение летной жизни есть разве что у RA-85123, борт выпущен в 2006 году, но к сожалению и он похоже уже никому не нужен…

26.

27.

28. А эта коллекция если я не ошибаюсь. принадлежит Красноярскому филиалу Санкт-Петербургского университета гражданской авиации. К сожалению пока так ни разу и не удалось добраться туда и поснимать экспонаты детально, но я не теряю надежд!

29. поземок..

30.

31.

32. Пассажирский терминал внутренних линий. К сожалению его замечательный балкончик зимой закрыт.

33.

34. Далее все набросились на детальное общелкивание А320 авиакомпании:

35. Привет большой брат! Дай пяяять! Тут летает alisalisovskaya

36. БЕС

37. Социальный срез пассажиров S7

38. «Дэвушка, таксы да города, нэдорого!»

39.

40. Настоящее и прошлое отечественной региональной авиации
Ан-26 в пассажирской версии и ATR-42 на которые поменяли свои Аны большие компании, которые занимаются региональными перевозками.

41. Ан-26 КрасАвиа

42. По меткому замечанию сделанному в Сургуте fotografersha, бортовой читается как БЛиН.

43. Прощальный взгляд на перрон и мы уходим. Первый день не порадовал нас разнообразием траффика, но это было компенсировано детальной предметной съемкой имеющихся бортов. Во второй день времени на это уже не было, снимали постоянную движуху в аэропорту. Отчет об этом обязательно вам покажу.

Официальная часть закончена, но жизнь аэропорта на этом не заканчивается, поэтому идем все вместе отогреваться в гостиницу а потоооом. Отправляемся в потрясающее место, чтобы поснимать огоньки, самолеты и конечно же, померзнуть :))

44. Знакомьтесь. ВПП 29.

45. Посадка Ан-24

46. следом за ним ATR-42

Ну и на этом всё. Кроме снятых Ан-24 и АТРки над нами прогрохотало еще 2 МД-11 Люфтганзы, причем поскольку одна из них ушла на второй круг, то получилось, что прогрохотали 3 раза 🙂 Были еще АТРки, Як-42. Но все это я снимал на видео, а поскольку видео я не очень люблю и почти нет опыта съемки, получилась в общем-то ерунда, которую показывать не хочется.

Вот таким получился мой день 5 марта, в аэропорту Красноярска.
Благодарю за внимание!

UNKL — Krasnoyarsk Airport + UNKM

UNKL — Airport Krasnoyarsk (ex Yemelyanovo) — International Airport (Russian: Международный аэропорт Красноярск) (IATA: KJA, ICAO: UNKL), is a major airport in Krasnoyarsk Krai, Russia, 27 kilometres (17 mi) northwest of Krasnoyarsk.

Construction of the airport started in 1970. It opened for operations in 1980. By 2006, the old runway coating had been replaced by asphalt-concrete layer with reinforced polymeric netting. In November 2017, the general director of the airport has announced that the airport will now be called Krasnoyarsk-International, instead of Krasnoyarsk-Yemelyanovo. It is unknown if the airport has as yet been officially renamed.

Krasnoyarsk Yemelyanovo’s location is an unusual case, as the airfield is located right next to a smaller airfield, Cheremshanka. The reason this is unusual and slightly problematic is that since Cheremshanka is right next to the airfield, it can be easily confused as being Yemelyanovo, and what adds to the location issue is the fact that both airfields share their runway bearings — 11/29 — with each other. This, as a result, makes the two airports look like one, which is especially problematic as the only way to distinguish the two is the runway lengths — Cheremshanka has a shorter runway than Yemelyanovo — and the fact that no taxiway connects the two airfields.

At present, the airport provides a full array of passenger handling services in all three terminals, including VIP services, a business lounge, baby/parent room, ATMs, shops, cafés, bars, a drugstore and a post office. Runway 29 is certified for ILS Category II operations. The runway condition, the facilities and the technology of aircraft handling allows the airport to service more than 50 types of passenger and freighter aircraft, up to and including the Boeing 777, Boeing 767, Boeing 747, Airbus A330 family, McDonnell Douglas MD-11, Antonov An-124 and others.

At Krasnoyarsk (Yemelyanovo) International Airport, the new terminal is under construction and currently the construction is planned to finish by November 2017. On 16 December 2017, the airport plans to test the new passenger terminal and to commence operations also in December. The terminal will have 6 air-bridges.

UNKM — Krasnoyarsk Cheremshanka Airport (Russian: Красноярский аэропорт Черемшанка) (ICAO: UNKM) is a domestic airport in the Krasnoyarsk Krai. Since 1982 it is also the base of a helicopter detachment of civil defense, featuring the Mil Mi-6 and Mil Mi-8 aircraft. Besides civil defense and military use, the airfield is used for civilian passenger traffic flights of Antonov An-24 and Antonov An-26 aircraft. It is the hub of KrasAvia airline. 

On 19 December 2011, a fire broke out at the Cheremshanka airport which destroyed the terminal building and the air traffic control tower. No injuries were reported. The reason for the fire is under investigation. About 100 fire fighters and 38 vehicles managed to extinguish the fire about four hours after the alert. No injuries occurred, no passengers were in the terminal building (capacity for 500 passengers) when the fire broke out.

In 2011–2018, passengers were served at a temporary terminal, which was made from the previous cargo terminal. The destroyed terminal was reconstructed after the fire and enlarged, to allow accepting 30 flights on a daily basis. The new passenger terminal was open in June 2018. The terminal serves regional flights only. 

Developer — https://x-flight.su

Летная и нелетная погода. | SKYNAV

Абсолютно нелетная погода с точки зрения пассажира может быть лишь незначительным неудобством для летчика, в то же время вполне сносная погода в традиционном понимании может быть нелетной. Конечно, в последнем случае задержки и отмены рейсов вызывают вполне объяснимый гнев со стороны пассажира. На самом деле безопасному выполнению рейса могут препятствовать целый ряд метеорологических явлений. Часто бывает так, что рейсы одних авиакомпаний вылетают и садятся, а другие часами ждут погоды или вообще отменены. Мы уже затрагивали тему метеоусловий в статье о задержках, в этой статье мы более подробно поговорим от том, какая погода и как оказывает влияние на деятельность авиации, что такое

метеорологический минимум и как экипаж принимает решение на вылет.

Итак, начнем с того, что прежде чем пытаться определить, летная погода или нет, нужно установить соответствующий критерий. Этот критерий называется метеорологический минимум, минимумы для взлета и посадки применяются в отношении скорости и направления ветра, видимости, нижней границы облачности, состояния ВПП.

Как таковых минимумов для полета по маршруту нет, но нельзя забывать, что существует ряд метеорологических условий, которые априори опасны для авиации, речь идет в первую очередь о грозах и сопутствующих явлениях, таких как град, молния, сильное обледенение, сильная турбулентность. Конечно, большинство гроз можно обойти, но если речь идет о фронтальных грозах, которые сплошной стеной тянутся на сотни километров, часто их обход не представляется возможным.

Как правило, когда говорят о минимумах, речь идет о минимальной видимости на взлетно-посадочной полосе и высоте принятия решения (ВПР). Высота принятия решения – это высота, на которой пилот обязан выполнить уход на второй круг если не видит ВПП.

Существует три вида минимумов:

  • Минимум воздушного судна.

    Это минимум, установленный производителем самолета, то есть перечень допустимых метеоусловий, при которых производитель гарантирует безопасную эксплуатацию самолета.

  • Минимум аэродрома.

    Это минимум установленный в данном аэропорту для каждой конкретной взлетно-посадочной полосы. Он зависит от установленного на аэродроме наземного радио-навигационного, свето-технического оборудования и окружающей аэропорт местности (в основном речь идет о рельефе и искусственных препятствиях).

  • Минимум экипажа.

    Минимум экипажа, это персональный допуск каждого пилота к выполнению полета в определенных метеоусловиях. Минимумы пилотов достигаются прохождением специальной программы тренировок и подтверждаются летными проверками.

Основное правило применения метеорологических минимумов состоит в том, что применяется наихудший минимум из трех: самолета, аэропорта и экипажа.

Приведем пример. Производитель самолета установил минимальную видимость на полосе при выполнении посадки для данного воздушного судна 200 метров, экипаж в результате проверок подтвердил свою квалификацию и имеет допуск к выполнению посадки при горизонтальной видимости 200 метров, однако для аэродрома, на который выполняется полет установлен минимум 800 метров. Как уже было сказано выше, выбирается самый худший минимум, то есть в данном случае будет применяться минимум 800 метров. Все предельно логично, в данном случае, несмотря на прекрасное оборудование воздушного судна и высокую квалификацию летчиков, аэропорт имеет менее продвинутое оборудование, которое не позволит выполнить заход на посадку с такой высокой точностью, поэтому итоговый минимум будет соответствовать минимуму аэродрома.

Поговорим подробнее о метеоявлениях, которые ограничивают деятельность авиации.

Видимость.

Наверное самая частая причина задержек по метеоусловиям – это ограниченная видимость. К этой группе мы отнесем такие метеоявления как туман, дождь, снег, пыль, дым, в общем, все, что так или иначе понижает видимость. С точки зрения авиации, не особо важно из-за чего ограничена видимость, основным параметром определяющим возможность выполнения взлета и посадки является дальность видимости на ВПП, или RVR (Runway visual range). Вторым параметром минимума для посадки является высота принятия решения. Например, 60х550, где 60 метров – высота принятия решения, а 550 метров – дальность видимости на ВПП. Иногда добавляется третий параметр – высота нижней границы облачности.

Как уже говорилось, минимум аэродрома зависит в числе прочего от радио-навигационного оборудования ВПП, чаще всего от категории курсо-глиссадной посадочной системы ИЛС. Большинство российских аэропортов имеют базовую систему ИЛС первой категории, которая обеспечивает минимум 60х550, часто аэродром вообще не оборудован ИЛС, тогда заход на посадку выполняется по так называемым неточным системам и минимум аэродрома значительно выше. Оборудование ИЛС второй категории на сегодняшний день установлено в нескольких аэропортах РФ таких как Уфа, Внуково, Новосибирск, Красноярск, минимум составляет 30х300 метров. И лишь три аэропорта имеют оборудование ИЛС категории IIIA, минимум для которых составляет 15х200 метров, это Шереметьево, Домодедово и Пулково.

Особый случай – горные аэродромы, здесь минимумы могут быть значительно выше несмотря на установленное наземное оборудование.

Если говорить о минимумах воздушных судов, то большинство самолетов иностранного производства, коих сегодня большинство, имеют допуск к выполнению полетов по категории IIIB и IIIC, то есть могут выполнять посадку в автоматическом режиме при видимости близкой к нулевой, однако в России пока ни один аэропорт не имеет соответствующего оборудования, что неудивительно из-за его огромной стоимости. Что касается летчиков, большинство из них имеет допуск к посадке по минимуму 15х200, реже можно встретить экипажи с допуском 60х550, как правило это те, кто лишь недавно выполняет самостоятельные полеты.

Минимумы аэропорта для взлета зависят в основном от характеристик свето-технического оборудования ВПП и препятствий вокруг ВПП и составляют как правило около 150-250 метров.

Ветер.

Обычно, ограничения по ветру – это ограничения установленные производителем самолета, очень редко правила аэропорта требуют корректировать эти значения в сторону увеличения. Скорость ветра раскладывается на две составляющие – боковую и продольную. Самолеты выполняют взлет и посадку против ветра, либо с небольшой попутной составляющей. Причина этому — безопасность, т.к. взлет и посадка против ветра позволяют значительно уменьшить скорости посадки и отрыва, а значит сократить дистанции разбега и пробега. Для большинства современных гражданских самолетов максимальная попутная составляющая ветра на взлете и посадке составляет 5 метров в секунду, а боковая около 17-18 метров секунду.

Скорость ветра 11 м/с раскладывается на две составляющие: боковую и попутнуя.

Боковой ветер представляет опасность, так как чтобы его компенсировать, необходимо немного развернуть самолет против ветра, на так называемый угол сноса, чем сильнее ветер, тем больше это угол. Пока самолет летит, снос проблем не вызывает, но в момент касания ВПП самолет приобретает сцепление с ее поверхностью и стремится двигаться в направлении параллельном своей оси, в это момент летчику необходимо резко изменить направление движения, что не всегда легко. Особую опасность представляет порывистый ветер, который может «поддуть» в самый неподходящий момент, создав большой крен, что в условиях близости земли очень опасно.

Посадка с сильным боковым ветром.

Напомним, что речь идет именно о составляющих ветра, разложенных для конкретного направления ВПП, само значение скорости ветра может быть значительно выше.

Ветер, который бы дул строго перпендикулярно ВПП со скоростью около 20 метров в секунду – явление нечастое, обычно такой сильный ветер связан с прохождением мощных циклонов. Что же касается ветра попутного, для абсолютного большинства аэропортов эта проблема решается элементарной сменой рабочего порога ВПП, однако есть ряд аэропортов, где такой возможности нет. Например, Сочи и Геленджик. Эти аэродромы расположены в непосредственной близости от гор, что исключает возможность взлета в сторону гор и посадки со стороны гор, то есть взлетать нужно на море. Если же ветер дует в сторону моря, часто попутная составляющая исключает возможность безопасного выполнения взлета. То есть, по сути, сесть можно, а вот взлететь уже нет.

Аэропорт Адлер города Сочи.

Состояние ВПП.

Если взлетно-посадочная полоса покрыта слоем льда, как ни крути, а взлетать и садиться нельзя. В авиации применяется такое понятие как коэффициент сцепления, замер которого регулярно осуществляется аэродромной службой, если же его значение падает ниже 0,3, ВПП не пригодна для взлета и посадки. В случае если имеет место боковой ветер, это пороговое значение корректируется в сторону увеличения. Коэффициент сцепления ниже 0,29 означает, что полоса покрыта слоем льда, снега или слякоти и требует очистки. Неблагоприятные погодные условия, такие как интенсивный снегопад или переохлажденные осадки могут сводить всю работу по очистке ВПП на нет, из-за чего аэродром закрывается на многие часы.

Как принимается решение на вылет?

Принятие решение на вылет — это исключительное право командира воздушного судна. Чтобы решить лететь или не лететь в первую очередь необходимо ознакомиться с метеорологической информацией по аэродромам вылета, назначения и запасным. Для этого применяются метеосводки фактической погоды METAR, которые выпускаются для всех аэропортов с периодичностью в 30 минут и прогнозы TAF, периодичность выпуска которых составляет как правило 3 или 6 часов. METAR и TAF в стандартной форме отражают всю метеорологическую информацию так или иначе значимую при полете на данный аэродром.

В качестве примера приведем METAR аэропорта Красноярска:

UNKL 181830Z 00000MPS 4600 BCFG SCT046 BKN240 11/09 Q1012 TEMPO 0500 FG RMK QFE733 29////65

Для непосвященного человека это лишь набор букв и цифр, однако пилоту достаточно одного взгляда, чтобы понять, что погода «не очень». В сводке закодирована следующая информация: на аэродроме Красноярск 18 го числа в 18 часов 30 минут единого времени существовали следующие условия: ветер – штиль, видимость 4600м, местами туман, рассеянная облачность на 1500 метров, разорванная на 800 метров, температура 11 градусов, точка росы 9 градусов, временами туман с видимостью 500 метров, давление 733 миллиметра ртутного столба, коэффициент сцепления на ВПП 0.65.

При принятии решения на вылет все рейсы условно делят на две категории: менее двух часов и более двух часов. Для рейсов менее двух часов разрешается не учитывать прогноз и вылетать в случае если фактическая погода в данный момент выше минимума. Если полет длится более двух часов, наоборот фактическая погода на аэродроме не учитывается, а решение принимается на основании прогноза TAF. К слову, российское законодательство позволяет принять решение на вылет, если погода на аэродроме назначения прогнозируется ниже минимума в том случае если имеются два запасных аэродрома с допустимыми метеоусловиям, однако этой возможностью пользуются редко, что вполне разумно.

Почему одни вылетают и садятся, а другие ждут погоды?

Причин много. Приведем примеры. Допустим, в Самаре прогнозируется туман ниже минимума, фактическая погода пока выше минимума. Рейсы из Москвы вылетают и садятся, а рейсы из Санкт-Петербурга задерживаются. Дело в том, что полет из Москвы длиться менее двух часов, и решение на вылет принимается исходя из фактических условий, а из Санкт-Петербурга лететь более двух часов, это означает, что вылететь можно будет только под прогнозируемое улучшение.

Одни сели, а другие ушли на запасной аэродром, почему? Опять же, разные самолеты, разные экипажи. Возможно, тот рейс, который ушел на запасной, выполнялся экипажем с плохим личным минимумом или самолет не был допущен к посадке в данных условиях. Кстати, даже два внешне одинаковых самолета одного производителя могут иметь разные ограничения, так например часть самолетов А320 допущено к эксплуатации при попутной составляющей ветра 7 метров в секунду, в то время как остальные имеют ограничение 5 метров в секунду.

Часто от пассажиров, ожидающих вылета рейса, задержанного по метеоусловиям, можно услышать высказывания вроде «я только что звонил своей тетке, она сказала, что никакого тумана нет и не было! Нас обманывают!». Спешим заверить, что никто никого не обманывает. Почему то многие граждане думают, что если в Шереметьево туман, то и вся Москва ровно по ее границе должна быть закрыта туманом. Отнюдь. Многие метеоявления носят очень локальный характер. Бывает так, что видимость на параллельных ВПП различается на несколько километров.

Емельяново Аэропорт Погодская (Красноярск) = 6 миль

Ветер с порывами до 8 метров в секунду.
16:00 08:00 VFR VFR 230 ° 3 MPS
Облака и видимость в порядке
> = 6 миль Ветры порывает до 8 метров в секунду.
16-AПР 07:00 VFR 230 ° 3 MPS
Облака и видимость в порядке
> = 6 миль Ветры порывает до 8 метров в секунду.
160025
16-AПР 06:00 06:00 VFR 230 ° 3 MPS
Облака и видимость в порядке
> = 6 миль Ветры порывает до 8 метров в секунду.
16-AПР 05:00 VFR VFR 230 ° 3 MPS
Облака и видимость в порядке
> = 6 миль Ветры порывает до 8 метров в секунду.
16-AПР 04:00 VFR VFR 230 ° 3 MPS
Облака и видимость в порядке
> = 6 миль Ветры порывает до 8 метров в секунду.
16-AПР 03:00 VFR VFR 230 ° 3 MPS
Облака и видимость в порядке
> = 6 миль Ветры порывились до 8 метров в секунду.
16-AПР 02:00 VFR 230 ° 3 MPS
Облака и видимость в порядке
> = 6 миль Ветры порывает до 8 метров в секунду.
16-AПР 01:00 VFR 230 ° 3 MPS
Облака и видимость в порядке
> = 6 миль Ветры порывает до 8 метров в секунду.
16-AПР 00:00 VFR VFR 230 ° 3 MPS
Облака и видимость в порядке
> = 6 миль Ветры порывается до 8 метров в секунду.
15-AПР 23:00 VFR VFR 230 ° 3 MPS
Облака и видимость в порядке
> = 6 миль Ветры порывает до 8 метров в секунду.
15-AПР 22:00 VFR VFR 230 ° 3 MPS
Облака и видимость в порядке
> = 6 мили Ветры порывились до 8 метров в секунду.
15-AПР 21:00 VFR VFR 230 ° 3 MPS
Облака и видимость в порядке
> = 6 миль Ветры порывает до 8 метров в секунду.
15-AПР 20:00 VFR 230 ° 200006 3 MPS
Облака и видимость в порядке
> = 6 миль Ветры порывает до 8 метров в секунду.
15-AПР 19:00 VFR VFR 230 ° 3 MPS
Облака и видимость в порядке
> = 6 миль Ветры порывает до 8 метров в секунду.
15-AПР 18:00 VFR 230 ° 3 MPS
Облака и видимость в порядке
> = 6 миль Ветры порывились до 8 метров в секунду.
15-AПР 17:00 VFR VFR 230 ° 3 MPS
Облака и видимость в порядке
> = 6 миль Ветры порывает до 8 метров в секунду.
15-AПР 16:00 VFR 230 ° 3 MPS

Облака и видимость в порядке
> = 6 миль Ветры порывается до 8 метров в секунду.
15-AПР 15:00 VFR 230 ° 3 MPS
Облака и видимость в порядке
> = 6 миль Ветры порывает до 8 метров в секунду.
15-AПР 14:00 VFR VFR 230 ° 3 MPS
Облака и видимость в порядке
> = 6 миль Ветры порывает до 8 метров в секунду.
15-AПР 13:00 VFR VFR 230 ° 3 MPS
Облака и видимость в порядке
> = 6 миль Ветры порывает до 8 метров в секунду.
15-AПР 12:00 VFR VFR 230 ° 3 MPS
Облака и видимость в порядке
> = 6 миль Ветры порывает до 8 метров в секунду.
15-AПР 11:00 VFR VFR 230 ° 3 MPS
Облака и видимость в порядке
> = 6 миль Ветры порывились до 8 метров в секунду.
15-AПР 10:00 VFR 230 ° 3 MPS
Облака и видимость в порядке
> = 6 миль Ветры порывает до 8 метров в секунду.

МЕТАР ЭДАХ 220720Z 09003KT CAVOK 14/10 Q1023= METAR EDDB 220720Z VRB02KT CAVOK 12/07 Q1023 NOSIG= METAR EDDC 220720Z 15005KT CAVOK 10/10 Q1023 NOSIG= METAR EDDE 220720Z 21008KT CAVOK 11/09 Q1022 NOSIG= METAR EDDF 220720Z 08006KT CAVOK 12/08 Q1022 NOSIG= METAR EDDG 220720Z VRB01KT CAVOK 12/08 Q1022 NOSIG= METAR EDDH 220720Z 11003KT 070V170 CAVOK 13/09 Q1022 NOSIG= METAR EDDK 220720Z 12003KT 060V160 CAVOK 11/08 Q1022 NOSIG= METAR EDDL 220720Z 15008KT CAVOK 13/08 Q1021 NOSIG= МЕТАР ЭДДМ 220720З ВРБ01КТ 4500 1600СЭ ПРФГ НСК 07/07 К1023 БЭКМГ 6000= METAR EDDN 220720Z VRB02KT CAVOK 10/08 Q1023 NOSIG= METAR EDDP 220720Z 17004KT CAVOK 13/11 Q1022 NOSIG= METAR EDDR 220720Z 07004KT 020V110 CAVOK 12/08 Q1022 NOSIG= METAR EDDS 220720Z VRB01KT CAVOK 10/08 Q1022 NOSIG= METAR EDDT 220720Z 11004KT 080V150 CAVOK 14/06 Q1023 NOSIG= METAR EDDV 220720Z VRB02KT 7000 NSC 13/11 Q1022 NOSIG= МЕТАР ЭДДВ 220720З 12005КТ 090В160 1600 Р09/0900В1600Д ПРФГ БР СКТ002 11/11 К1022 БЭКМГ 5000= МЕТАР ЭДФЭ 220720Z VRB02KT CAVOK 10/09 Q1022= METAR EDFH 220720Z 15007KT CAVOK 10/07 Q1022= МЕТАР ЭДФМ 220720Z 35004KT 320V020 CAVOK 11/10 Q1023= METAR EDGS 220720Z 15006KT CAVOK 13/08 Q1022= МЕТАР ЭДХИ 220720Z VRB01KT CAVOK 13/10 Q1022= МЕТАР ЭДХК 220720Z 14004KT 9999 SCT044 12/12 Q1022= METAR EDHL 220720Z VRB02KT CAVOK 12/09 Q1023= METAR COR EDJA 220720Z VRB01KT 6000 NSC 08/07 Q1022= МЕТАР ЭДЛН 220720З 15004КТ 110В190 КАВОК 12/09 К1021= METAR EDLP 220720Z 18006KT CAVOK 15/08 Q1022= METAR EDLV 220720Z 14006KT CAVOK 13/09 Q1021= METAR EDLW 220720Z 17009KT CAVOK 12/06 Q1022= METAR EDMA 220720Z VRB01KT 8000 NSC 09/09 Q1022= МЕТАР ЭДМО 220720Z 00000KT CAVOK 11/11 Q1022= МЕТАР ЭДНИ 220720Z 03005KT 4800 BR SCT007 SCT009 09/08 Q1022= METAR EDOP 220720Z 05004KT CAVOK 11/08 Q1023= METAR COR EDQM 220720Z VRB02KT 5000 BR NSC 10/09 Q1023= METAR EDSB 220720Z VRB02KT 8000 VCFG NSC 09/09 Q1022= МЕТАР ЭДТЛ 220720Z 06002KT CAVOK 10/08 Q1022= МЕТАР ЭДТИ 220720Z VRB01KT 8000 NSC 10/07 Q1022= МЕТАР ЭДВЕ 220720Z VRB03KT 9999 FEW045 12/12 Q1022= METAR EDVK 220720Z VRB02KT 9999 BCFG NSC 10/09 Q1023= METAR ETAD 220658Z AUTO 00000KT 9999 CLR 09/07 A3019 RMK AO2 SLP216 T008 = METAR ETAR 220658Z 08003KT 9999 CLR 06/06 A3019 RMK AO2A SLP232 T00610059 = METAR ETEB 220658Z AUTO 00000KT 9999 CLR 09/08 A3019 RMK AO2 SLP238 T004 = METAR ETGG 220720Z 13010KT 9999 FEW050 BKN250 12/11 Q1022 BLU+= METAR ETHA 220720Z 35001KT 0200 FG 08/08 Q1022 КРАСНЫЙ КРАСНЫЙ BECMG BLU+= METAR ETHB 220720Z 18004KT 9999 SCT350 15/11 Q1022 СИНИЙ+СИНИЙ+= METAR ETHC 220720Z 01001KT 9999 FEW058 BKN260 09/08 Q1022 BLACKBLU+BLU+= METAR ETHE 220720Z 18003KT 9999 FEW350 12/08 Q1022 BLU+= METAR ETHF 220720Z VRB01KT 4000 VCFG FEW003 BKN300 08/08 Q1023 GRN GRN BECMG BLU+= METAR ETHL 220720Z 04003KT 3800 BR FEW005 07/06 Q1022 ЗЕЛ ЗЕЛ BECMG BLU+= METAR ETHN 220720Z 09002KT 9999 SCT280 13/08 Q1022 СИНИЙ+СИНИЙ+= METAR ETHS 220720Z 00000KT 9999 FEW060 BKN330 11/08 Q1022 СИНИЙ+СИНИЙ+= METAR ETIC 220658Z AUTO 00000KT M0400 FG VV001 06/05 A3020 RMK AO2 SLP237 RVRNO= METAR ETIH 220658Z AUTO 00000KT 9999 CLR 08/07 A3021 RMK AO2 SLP238 = METAR ETIK 220658Z АВТО 05001KT 9999 SCT001 07/07 A3022 RMK AO2 SLP240 T00680068= METAR ETMN 220720Z 15003KT 9999 SCT060 SCT330 12/10 Q1021 СИНИЙ+СИНИЙ+= METAR ETND 220720Z VRB02KT 9999 FEW200 BKN300 12/10 Q1022 СИНИЙ+СИНИЙ+= METAR ETNG 220650Z 11004KT CAVOK 12/08 Q1021 NOSIG= METAR ETNH 220720Z 13004KT 9999 SCT058 BKN220 11/09 Q1022 BLACKBLU+= METAR ETNL 220720Z 10004KT 9999 SCT200 BKN270 13/08 Q1023 BLU+BLU+= METAR ETNN 220720Z 15004KT 9999 SCT300 13/06 Q1022 СИНИЙ+СИНИЙ+= METAR ETNS 220720Z 12005KT 9999 FEW060 BKN250 12/09 Q1022 BLU+= METAR ETNT 220720Z 17004KT 8000 FEW150 SCT280 14/11 Q1021 СИНИЙ+СИНИЙ+= METAR ETNW 220720Z VRB01KT 1200 BR BKN350 12/11 Q1022 AMB AMB BECMG BLU+= METAR ETOU 220658Z AUTO 00000KT 9999 CLR 10/06 A3020 RMK AO2 SLP230 T00980057= METAR ETSA 220720Z 12003KT 5000 BR FEW220 10/07 Q1022 WHT WHT BECMG BLU+= METAR ETSB 220720Z 33002KT 9999 FEW350 12/07 Q1022 СИНИЙ+СИНИЙ+= МЕТАР ЭТШ 220720Z 13004KT 9999 SCT300 11/08 Q1023 СИНИЙ+СИНИЙ+= METAR ETSI 220720Z 03002KT 0300 R25/0500N FG VV002 07/06 Q1023 КРАСНЫЙ КРАСНЫЙ BECMG WHT= METAR ETSL 220720Z VRB02KT 6000 FEW002 10/07 Q1022 БЕЛ БЕЛ BECMG BLU+= METAR ETSN 220720Z 17002KT 5000 BR FEW003 08/07 Q1022 WHT= METAR ETWM 220720Z 18001KT 9999 SCT320 11/10 Q1021 BLU+= METAR EGAA 220720Z 16004KT 9999 FEW010 07/06 Q1015= METAR EGAC 220720Z 17004KT 9999 FEW001 SCT024 07/07 Q1015= МЕТАР ЭГАЕ 220720Z 26007KT 180V280 CAVOK 08/07 Q1014= МЕТАР ЭГББ 220720З 21004КТ 180В250 9999 БКН004 БКН013 13/13 Q1017= METAR EGBE 220720Z 22007KT 4000 DZ BKN015 14/13 Q1017= METAR EGBJ 220720Z 27002KT 9999 FEW009 BKN040 14/14 Q1017 = METAR COR EGCC 220720Z 23004KT 180V250 9999 FEW008 BKN035 13/12 Q1017 NOSIG= МЕТАР EGCN 220720Z 19006KT 9999 BKN026 14/12 Q1017= METAR EGDM 220650Z 19006KT 9999 FEW015 BKN038 BKN090 13/12 Q1018 BLU BECMG 5000 -RA SCT014 GRN= METAR EGDR 220650Z 30003KT 9999 FEW000 09/09 Q1019 BLU TEMPO 4000 BR SCT007 GRN= METAR EGDX 220650Z AUTO 30008KT 9999 BKN024/// BKN039/// 13/11 Q1018 RERA= METAR EGDY 220650Z 26007KT 9999 FEW012 BKN030 BKN060 14/13 Q1018 BLU NOSIG= METAR EGEC 220720Z 09006KT 9999 FEW019 08/07 Q1014= METAR EGEO 220720Z 11008KT 9999 FEW008 08/08 Q1014= METAR EGFF 220720Z АВТО 31009KT 9999 BKN028 12/12 Q1018= МЕТАР ЭГГД 220720Z АВТО 25004KT 9999 BKN013 BKN025 13/12 Q1018= METAR EGGP 220720Z 27007KT 9999 FEW012 12/11 Q1017= METAR EGGW 220720Z AUTO 21005KT 150V240 9999 NCD 13/13 Q1018= METAR EGHE 220720Z 32005KT 9999 FEW036 13/07 Q1020= METAR EGHH 220720Z 21007KT 9999 BKN035 16/13 Q1018 = METAR EGHI 220720Z 09001KT 9999 FEW025 12/11 Q1018 = METAR EGHQ 220720Z 14003KT 9999 FEW035 11/08 Q1019= METAR EGJA 220720Z 21009KT 9999 FEW020 BKN049 16/13 Q1019= METAR EGJB 220720Z 20007KT 9999 FEW018 SCT032 BKN049 16/13 Q1019= METAR EGJJ 220720Z 22007KT 9999 FEW018 16/13 Q1020 NOSIG= METAR EGKA 220720Z 36001KT 9999 FEW018 14/13 Q1018= МЕТАР EGKB 220720Z 23005KT CAVOK 14/12 Q1019 = МЕТАР ЭГКК 220720Z 21002KT 9000 НСК 13/13 Q1019= METAR EGLC 220720Z 25007KT 9999 FEW035 16/12 Q1019= METAR EGLF 220720Z 19004KT CAVOK 13/12 Q1018= METAR COR EGLL 220720Z AUTO 22006KT 9999 NCD 15/13 Q1019 NOSIG= METAR EGMC 220720Z 24006KT 8000 NSC 15/12 Q1018= METAR EGMD 220720Z 29007KT CAVOK 16/14 Q1019= METAR COR EGMW 220720Z 19012KT 9999 SCT022 19/15 Q1017 NOSIG= МЕТАР ЭГНХ 220720Z 29009KT 9999 SCT045 14/10 Q1016= METAR EGNJ 220720Z 21010KT 4500 BR SCT010 14/13 Q1017= METAR EGNM 220720Z 25006KT 200V300 9999 7000SE-RA FEW006 BKN011 12/11 Q1016= METAR EGNO 220720Z 29006KT 9999 FEW015 13/10 Q1016= METAR EGNR 220720Z VRB02KT 9999 FEW015 13/11 Q1017= METAR EGNS 220720Z VRB03KT 9999 FEW018 11/08 Q1016 NOSIG= METAR EGNT 220720Z 20004KT 160V240 9999 FEW020 13/13 Q1014= METAR EGNV 220720Z 19012KT 9999 FEW012 SCT023 14/12 Q1015= METAR EGNX 220720Z 23009KT 9999 FEW013 SCT022 BKN039 13/12 Q1017 = METAR EGOM 220650Z AUTO 23013KT 6000 BR BKN001/// 11/11 Q1013 RERA= METAR EGOP 220650Z AUTO 36002KT 9999 // NCD 07/07 Q1018= METAR EGOS 220650Z 26007KT 9999 FEW014 SCT035 11/10 Q1017 BLU NOSIG= METAR EGOV 220650Z 26003KT 9999 FEW025 10/07 Q1017 BLU NOSIG= METAR EGPA 220720Z 16001KT 9999 FEW016 BKN045 11/11 Q1012= METAR COR EGPB 220720Z 16011KT 8000 -RA SCT003 BKN006 13/13 Q1012 TEMPO 4000 RADZ = METAR EGPC 220720Z 00000KT 9999 FEW012 SCT038 11/10 Q1013= METAR EGPD 220720Z 00000KT 9999 FEW005 SCT048 13/12 Q1012 NOSIG= METAR EGPE 220720Z 24003KT 9999 FEW004 SCT048 10/09 Q1013= METAR EGPF 220720Z АВТО VRB02KT 9999 SCT044 09/08 Q1014= METAR EGPH 220720Z 25007KT 9999 FEW020 SCT038 11/10 Q1014= METAR EGPI 220720Z 12005KT 9999 FEW010 09/08 Q1014 = МЕТАР ЭГПК 220720Z 26006KT 9999 FEW018 12/10 Q1015= METAR EGPL 220720Z 16008KT 9999 FEW022 10/09 Q1011= METAR COR EGPM 220720Z 00000KT 080V140 9999 -RA FEW010 11/09 Q1012 TEMPO RA= METAR EGPN 220720Z 26006KT 9999 FEW006 SCT015 BKN048 12/12 Q1013= METAR EGPO 220720Z 18012KT 9999 FEW026 12/09 Q1011= METAR EGPU 220650Z АВТО VRB11KT 9999 NCD 11/09 Q1012= METAR EGQK 220650Z АВТО 20003KT 9999 OVC041/// 11/09 Q1013 RERA= METAR EGQL 220650Z 25004KT 8000 -RA FEW007 BKN016 BKN024 13/12 Q1012 WHT= METAR EGQM 220650Z АВТО 19006KT 9999 BKN060/// BKN100/// 13/12 Q1013 RERA= METAR EGQS 220650Z 26008KT 9999 FEW010 BKN036 11/09 Q1013 BLU NOSIG= METAR EGRE 220720Z АВТО 15028KT 9000 BKN005/// 15/13 Q1014 W///S4= METAR EGRK 220720Z AUTO 15029KT CAVOK 15/12 Q1016 W///S4= METAR EGRM 220720Z АВТО 16034KT 9999 FEW028/// 16/13 Q1014 W///S4= METAR EGRO 220720Z AUTO /////KT CAVOK 15/14 Q1015 W///S4= METAR EGRP 220720Z АВТО 13022KT CAVOK 16/16 Q1015 W///S4= METAR EGRS 220720Z AUTO 15025KT 9999-RA NCD 16/14 Q1015 W///S3= METAR EGRV 220720Z AUTO 20014KT 8000 NCD ///// Q1017= METAR EGRW 220720Z АВТО 19015KT CAVOK 16/// Q1017 W///S3= METAR EGSC 220720Z VRB03KT 6000 FEW037 14/13 Q1018= METAR COR EGSH 220720Z 21004KT 3000 BR FEW048 15/15 Q1018 BECMG 8000 NSW= МЕТАР ЭГСС 220720Z АВТО 23007КТ 9000 НЦД 14/12 Q1018= METAR EGTE 220720Z VRB03KT 9999 FEW003 12/11 Q1018= METAR EGTK 220720Z 21006KT 9999 FEW020 BKN034 13/13 Q1017= METAR EGUB 220650Z 18007KT 9999 BKN045 13/12 Q1018 BLU NOSIG= METAR EGUL 220658Z AUTO 18004KT 9999 CLR 15/14 A3004 RMK AO2 DZB48E57 SLP176 P0000 VISNO RWY06 CHINO RWY06 $= METAR EGUN 220658Z AUTO 21003KT 9999 CLR 14/14 A3004 RMK AO2 SLP176 T01430143 $= METAR EGUO 220650Z 22009KT 2000 DZ VV/// 13/13 Q1018 КРАСНЫЙ= METAR EGUW 220650Z 24005KT 3500 Гц FEW070 SCT250 14/13 Q1018 YLO1 BECMG 5000 Гц WHT= METAR EGVA 220658Z AUTO 21007KT M-DZ FEW021 OVC030 14/14 A3005 RMK AO2 DZB47 CIG 025 RWY27 SLP178 P0000 T013 = METAR EGVN 220650Z 18003KT 9999 -RA FEW018 BKN030 14/12 Q1017 TEMPO 7000 -RADZ BKN015= METAR EGVO 220650Z 20008KT CAVOK 14/11 Q1018 СИНИЙ= METAR EGVP 220650Z 17005KT 9999 -RA FEW012 BKN050 BKN130 13/12 Q1018 BLU TEMPO SCT012 GRN= METAR EGWU 220650Z 23004KT 9999 FEW040 BKN160 14/12 Q1018 NOSIG= METAR EGXC 220650Z 19005KT 5000 BR FEW040 BKN150 BKN200 13/13 Q1017 WHT BECMG 9999 NSW BLU= METAR EGXE 220650Z 18008KT 9999 FEW018 SCT021 13/12 Q1015 WHT BECMG BKN035 BLU= METAR EGXP 220650Z 21009KT 9999 FEW035 BKN130 13/12 Q1016 BLU= METAR EGXS 220650Z AUTO 18006KT 3500 // FEW060/// 13/13 Q1016= METAR EGXT 220650Z 22007KT CAVOK 13/13 Q1017 BLU= METAR EGXU 220650Z 18006KT 6000 4500NE BR FEW025 SCT045 BKN080 14/13 Q1015 GRN TEMPO SCT015 WHT= МЕТАР EGXV 220650Z АВТО 20004КТ 3900 -ШРА БКН080/// БКН140/// 14/13 Q1016= METAR EGXW 220650Z 22010KT CAVOK 13/11 Q1016 СИНИЙ NOSIG= МЕТАР EGXZ 220650Z 17008KT 5000 DZ SCT027 OVC060 13/12 Q1015 WHT= METAR EGYD 220650Z 19006KT CAVOK 13/12 Q1017 BLU NOSIG= METAR EGYM 220650Z 17003KT 5000 Гц FEW012 OVC040 14/12 Q1017 WHT NOSIG= METAR EGYP 220650Z 36019KT 9999 FEW045 SCT080 BKN220 06/04 Q1002 BLU= METAR EICK 220700Z 19003KT 9999 FEW026 SCT250 07/06 Q1017 NOSIG= METAR EIDW 220700Z 21006KT 9999 FEW025 07/05 Q1016 NOSIG= METAR EIKN 220700Z 16005KT 9999 FEW006 SCT250 05/05 Q1013 NOSIG= METAR EINN 220700Z 13005KT 9999 FEW018CB BKN200 08/06 Q1016 WS RWY06 NOSIG= METAR LFAQ 220700Z AUTO 16004KT 8000 NSC 12/11 Q1020 TEMPO 3000 MIFG= METAR LFAT 220700Z AUTO 13004KT 6000 NSC 13/12 Q1019 TEMPO BKN008= METAR LFBA 220700Z AUTO 10003KT 7000 FEW001 SCT240 12/11 Q1020 TEMPO 0800 BCFG VV///= METAR LFBC 220700Z AUTO 02002KT CAVOK 14/13 Q1019 NOSIG= METAR LFBD 220700Z AUTO 00000KT CAVOK 15/14 Q1019 NOSIG= METAR LFBE 220700Z AUTO 08003KT CAVOK 10/10 Q1020 NOSIG= METAR LFBG 220700Z AUTO 00000KT CAVOK 12/10 Q1020 NOSIG= METAR LFBH 220700Z АВТО 02004KT CAVOK 15/13 Q1019 NOSIG= METAR LFBI 220700Z AUTO 15001KT CAVOK 10/10 Q1020 NOSIG= METAR LFBL 220700Z AUTO 04003KT CAVOK 11/09 Q1020 NOSIG= METAR LFBM 220700Z AUTO 09002KT 0650 0550 R27/1200U FG VV/// 11/10 Q1020 TEMPO 2000 BR BKN002= METAR LFBO 220700Z АВТО VRB03KT CAVOK 12/10 Q1020 NOSIG= METAR LFBP 220700Z AUTO 23003KT CAVOK 15/13 Q1019 TEMPO 3000 BR VV///= METAR LFBR 220700Z AUTO 19004KT //// // ////// 12/11 Q1020= METAR LFBT 220700Z АВТО 16003KT 9999 FEW004 12/10 Q1020 NOSIG= METAR LFBU 220700Z AUTO 14004KT 090V180 CAVOK 14/08 Q1020 NOSIG= МЕТАР LFBY 220700Z 07002KT 0550 FG BKN003 12/11 Q1019= METAR LFBZ 220700Z AUTO 19002KT CAVOK 16/15 Q1019 TEMPO 3000 BR BECMG BKN011= METAR LFCK 220700Z AUTO 00000KT CAVOK 14/10 Q1021 NOSIG= METAR LFCR 220700Z AUTO VRB01KT CAVOK 09/08 Q1021 NOSIG= METAR LFGA 220700Z АВТО 20002KT CAVOK 11/08 Q1022= METAR LFGJ 220700Z AUTO 10003KT CAVOK 10/09 Q1021 NOSIG= METAR LFJL 220700Z АВТО VRB02KT 8000 NSC 09/08 Q1022 NOSIG= METAR LFJR 220700Z АВТО 08001KT 9000 NSC 11/10 Q1020 NOSIG= METAR LFKB 220700Z 28003KT 9999 FEW026 20/16 Q1018 NOSIG= METAR LFKC 220700Z VRB02KT 9999 FEW021 FEW030TCU 19/13 Q1018 NOSIG= METAR LFKF 220700Z AUTO 00000KT CAVOK 22/13 Q1017 BECMG 25010KT= METAR COR LFKJ 220700Z 04005KT 9999 FEW030 17/13 Q1018 NOSIG= METAR LFKS 220700Z АВТО VRB02KT CAVOK 21/12 Q1017= METAR LFLB 220700Z VRB02KT 7000 FEW033 11/10 Q1021 NOSIG= METAR LFLC 220700Z AUTO 00000KT CAVOK 11/08 Q1021 NOSIG= METAR LFLL 220700Z VRB02KT CAVOK 11/10 Q1021 NOSIG= METAR LFLN 220700Z AUTO 00000KT 8000 NSC 09/09 Q1021 TEMPO 0400 FG VV///= METAR LFLP 220700Z AUTO 00000KT CAVOK 11/09 Q1021 NOSIG= METAR LFLS 220700Z AUTO 00000KT 6000 NSC 11/11 Q1021 NOSIG= METAR LFLU 220700Z АВТО 04004KT CAVOK 13/11 Q1020= METAR LFLX 220700Z AUTO 00000KT CAVOK 12/12 Q1020 NOSIG= METAR LFLY 220700Z AUTO 00000KT CAVOK 12/10 Q1021 TEMPO 2000 MIFG= METAR LFMC 220700Z 00000KT 9999 4000E VCFG FEW001 15/13 Q1019= METAR LFMD 220700Z AUTO 36004KT 320V050 CAVOK 16/13 Q1018 NOSIG= METAR LFMH 220700Z 00000KT CAVOK 09/08 Q1021 NOSIG= METAR LFMI 220700Z AUTO 35007KT CAVOK 17/11 Q1018 NOSIG= METAR LFMK 220700Z AUTO 00000KT CAVOK 12/10 Q1020 NOSIG= METAR LFML 220700Z AUTO 23003KT CAVOK 16/12 Q1018 NOSIG= METAR LFMN 220700Z 33012KT CAVOK 18/11 Q1018 NOSIG= METAR LFMO 220700Z AUTO 00000KT CAVOK 14/10 Q1019 NOSIG= METAR LFMP 220700Z AUTO 25004KT CAVOK 18/08 Q1019 NOSIG= METAR LFMT 220700Z VRB02KT CAVOK 14/09 Q1019 NOSIG= METAR LFMU 220700Z АВТО VRB02KT CAVOK 15/10 Q1019 NOSIG= METAR LFMV 220700Z AUTO 00000KT CAVOK 14/12 Q1019 NOSIG= METAR LFMY 220700Z AUTO 00000KT CAVOK 15/11 Q1019 NOSIG= METAR LFOA 220700Z АВТО 07002KT CAVOK 11/09 Q1021= METAR LFOB 220700Z AUTO 00000KT 4300 BR VV/// 10/10 Q1020 BECMG CAVOK= METAR LFOC 220700Z AUTO 00000KT 7000 NSC 11/11 Q1020 NOSIG= METAR LFOE 220700Z АВТО 11002KT CAVOK 12/10 Q1020= METAR LFOH 220700Z AUTO VRB01KT 9999 BKN019 OVC210 15/13 Q1020 TEMPO BKN008= METAR LFOJ 220700Z АВТО VRB02KT CAVOK 12/11 Q1020 NOSIG= METAR LFOK 220700Z AUTO 00000KT CAVOK 10/10 Q1021 NOSIG= METAR LFOP 220700Z АВТО 15003KT 7000 NSC 11/10 Q1020 NOSIG= METAR LFOT 220700Z AUTO 11002KT CAVOK 12/10 Q1020 NOSIG= МЕТАР ЛФОВ 220700Z АВТО 02002КТ 7000 НСК 11/11 Q1020= METAR LFPB 220700Z AUTO 07003KT CAVOK 13/11 Q1020 NOSIG= METAR LFPG 220700Z 16002KT CAVOK 15/10 Q1020 NOSIG= METAR LFPM 220700Z АВТО 10002KT CAVOK 12/10 Q1021= METAR LFPN 220700Z АВТО 00000KT 8000 NSC 12/11 Q1020 NOSIG= METAR COR LFPO 220700Z VRB02KT CAVOK 12/12 Q1021 NOSIG= METAR LFPT 220700Z AUTO 06002KT 5000 BR NSC 11/11 Q1020= METAR LFPV 220700Z АВТО VRB02KT CAVOK 15/11 Q1020 NOSIG= METAR LFQA 220700Z АВТО 11004KT CAVOK 11/09 Q1021= METAR LFQB 220700Z АВТО 15004KT CAVOK 10/09 Q1021= METAR LFQQ 220700Z АВТО 16004KT 8000 NSC 12/11 Q1020 NOSIG= METAR LFRB 220700Z AUTO 18007KT CAVOK 14/13 Q1019 TEMPO 4000 -RADZ BR BKN005= METAR LFRC 220700Z AUTO 21005KT CAVOK 13/11 Q1019 NOSIG= METAR LFRD 220700Z AUTO VRB03KT 9999 NCD 12/12 Q1020 NOSIG= METAR LFRG 220700Z АВТО 22002KT 9999 OVC006 14/11 Q1020 BECMG SCT040= METAR LFRH 220700Z AUTO 06003KT CAVOK 10/09 Q1020 NOSIG= METAR LFRI 220700Z АВТО 01003KT CAVOK 13/13 Q1020= METAR LFRJ 220700Z AUTO 18005KT CAVOK 13/11 Q1019 TEMPO 4000 RADZ BR BKN007= METAR LFRK 220700Z AUTO 28003KT 9999 BKN020 14/13 Q1019 TEMPO BKN014= METAR LFRL 220700Z AUTO 17004KT 9999 FEW020 BKN054 BKN074 14/13 Q1019 NOSIG= METAR LFRM 220700Z AUTO 00000KT CAVOK 11/10 Q1020 NOSIG= METAR LFRN 220700Z AUTO 29002KT 8000 NCD 12/12 Q1020 NOSIG= METAR LFRO 220700Z AUTO 14004KT CAVOK 12/11 Q1020 TEMPO 4000 -RADZ BR BKN005= METAR LFRQ 220700Z АВТО 05003KT CAVOK 11/11 Q1019 BECMG OVC010= METAR LFRS 220700Z AUTO 00000KT CAVOK 13/13 Q1019 NOSIG= METAR LFRT 220700Z АВТО 18004KT 150V210 CAVOK 12/09 Q1020= МЕТАР ЛФРУ 220700З АВТО 17003КТ 130В210 КАВОК 14/11 К1019= METAR LFRV 220700Z AUTO 03002KT 9999 NCD 11/10 Q1020= METAR LFRZ 220700Z AUTO VRB02KT 9999 NCD 11/11 Q1020 NOSIG= METAR LFSB 220700Z VRB02KT 8000 FEW006 10/09 Q1022 NOSIG= METAR LFSD 220700Z АВТО 34004KT CAVOK 11/08 Q1021= МЕТАР LFSG 220700Z АВТО 26004KT 9000 NSC 08/07 Q1022= METAR LFSI 220700Z АВТО VRB01KT CAVOK 10/09 Q1021= METAR LFSL 220700Z AUTO 11002KT CAVOK 11/09 Q1020 NOSIG= METAR LFSN 220700Z AUTO VRB02KT 9000 ////// 09/08 Q1022= METAR LFSO 220700Z AUTO 00000KT 7000 NSC 09/08 Q1021 BECMG 06010KT= METAR LFST 220700Z AUTO 01004KT CAVOK 11/09 Q1022 TEMPO 3000 BR= METAR LFSX 220700Z AUTO 00000KT 6000 1400 R11/1400U VV/// 07/07 Q1021 BECMG NSC= METAR LFTH 220700Z AUTO VRB02KT CAVOK 18/14 Q1018 NOSIG= METAR LFTW 220700Z AUTO 01005KT CAVOK 16/10 Q1019 NOSIG= METAR LFWC 220700Z AUTO 07005KT 9999 NCD 16/14 Q1019= METAR LFYR 220700Z АВТО 00000KT CAVOK 09/09 Q1020= METAR LOAN 220700Z 36008KT 20KM FEW025CU SCT040SC BKN300CI RMK BKN= METAR LOAV 220700Z 34010KT 18KM FEW020CU BKN040SC 13/09 RMK BKN= METAR LOIH 220600Z 00000KT 15KM FEW007ST BKN030SC 11/10 Q1021 RMK BKN= METAR LOWG 220720Z 20003KT 170V240 9999 FEW040 12/09 Q1022 NOSIG= METAR LOWI 220720Z 06005KT 9999 FEW017 SCT050 11/09 Q1023 NOSIG= METAR LOWK 220720Z VRB01KT 9999 FEW010 11/06 Q1023 NOSIG= METAR LOWL 220720Z VRB02KT 9999 FEW014 12/08 Q1023 NOSIG= METAR LOWS 220720Z VRB02KT 9999 FEW007 11/09 Q1023 NOSIG= METAR LOWW 220720Z 01008KT 330V040 9999 FEW030 SCT060 12/08 Q1023 NOSIG= METAR LOWZ 220700Z 00000KT 15KM FEW010SC SCT050SC 11/09 Q1022 RMK SCT= METAR LOXA 220720Z VRB02KT 0900 1500 Вт BCFG BKN005ST 06/06 Q1024 BECMG 2000 BR RMK BKN= METAR LOXN 220720Z 35010KT 15KM SCT020CU 13/10 Q1023 RMK SCT= METAR LOXT 220720Z VRB03KT 15KM FEW010ST SCT050SC 13/10 Q1023 NOSIG RMK SCT= METAR LOXZ 220720Z VRB02KT 50KM FEW060CU 07/05 Q1023 NOSIG RMK FEW= METAR LSGC 220720Z VRB01KT CAVOK 09/07 Q1022= METAR LSGG 220720Z VRB01KT 9999 FEW018 11/09 Q1022 NOSIG= МЕТАР ЛСГС 220720Z VRB02KT 9999 SCT040 13/10 Q1022= METAR LSMA 220650Z 00000KT 9000 SCT015 BKN018 11/10 Q1021 RMK WHT= METAR LSMD 220650Z 00000KT 4700 BR SCT010 BKN012 08/07 Q1022 RMK GRN= METAR LSME 220650Z 00000KT 5000 OVC016 11/10 Q1022 RMK WHT= METAR LSMM 220650Z VRB02KT CAVOK 09/09 Q1021 RMK BLU= METAR LSMP 220650Z 00000KT 1500 BR SCT001 BKN003 09/08 Q1022 RMK AMB= МЕТАР LSMS 220650Z 25003KT 9999 BKN040 13/10 Q1022= METAR LSZA 220720Z VRB01KT 7000 FEW015 SCT028 BKN070 17/15 Q1021 NOSIG= METAR COR LSZB 220720Z 00000KT 3500 BR FEW005 BKN010 09/09 Q1022 NOSIG= МЕТАР ЛСЗК 220720З АВТО 25003КТ 210В290 9999 БКН016 12/10 К1022= METAR LSZG 220720Z 05003KT 1500 BR SCT003 BKN016 08/08 Q1022 NOSIG= METAR LSZH 220720Z VRB01KT 5000 BR FEW009 SCT013 09/08 Q1022 TEMPO BKN013= METAR LSZL 220650Z 23004KT 200V260 9999 FEW015 SCT030 BKN050 16/13 Q1020 RMK BLU= METAR LSZR 220720Z 25003KT 210V280 4500 BR FEW008 BKN011 12/10 Q1022 NOSIG RMK D= METAR COR LSZS 220720Z 04002KT 9999 FEW002 SCT022 02/02 Q1023 RMK D= METAR EBAW 220720Z VRB01KT CAVOK 15/10 Q1020 NOSIG= METAR EBBE 220655Z 21007KT 9999 SCT250 14/08 Q1021 СИНИЙ СИНИЙ= METAR EBBL 220655Z VRB02KT 9999 FEW130 BKN220 12/09 Q1021 СИНИЙ СИНИЙ= METAR EBBR 220720Z 20006KT CAVOK 15/10 Q1020 NOSIG= METAR EBCI 220720Z 18005KT CAVOK 14/08 Q1021 NOSIG= METAR EBCT 220655Z AUTO 16004KT 9999 BKN220/// 13/09 Q1021 BLU= METAR EBCV 220655Z AUTO VRB02KT 9999 FEW190/// BKN240/// 13/10 Q1021 BLU= METAR EBDT 220655Z 15004KT 9999 BKN240 10/08 Q1021 СИНИЙ СИНИЙ= METAR EBFN 220655Z 12003KT 3000 BR SCT090 BKN230 13/12 Q1020 YLO YLO TEMPO AMB= METAR EBFS 220655Z VRB01KT 9999 FEW150 SCT220 13/07 Q1021 BLU BLU= METAR EBHH 220655Z AUTO 20003KT 9999 NCD 12/09 Q1021 BLU= METAR EBLB 220655Z AUTO VRB01KT 9999 NCD 06/05 Q1022 BLU= METAR EBLG 220720Z 17006KT 130V190 CAVOK 13/07 Q1021 NOSIG= METAR EBOS 220720Z 16004KT 7000 FEW048 13/11 Q1020 NOSIG= METAR EBSZ 220655Z AUTO 18005KT 9999 BKN190/// 14/10 Q1020 BLU= METAR EHAK 220725Z АВТО 16016KT 9999 NSC 18/14 Q1018= METAR EHAM 220725Z 16005KT CAVOK 13/10 Q1020 NOSIG= METAR EHBK 220725Z АВТО 20006KT 9999 NCD 13/09 Q1021 NOSIG= METAR EHDL 220725Z АВТО 13003KT 090V210 9999 FEW110/// 13/09 Q1021 BLU= METAR EHDV 220725Z АВТО 17014KT 8000 NSC 18/15 Q1018= METAR EHEH 220725Z AUTO 15005KT 090V240 9999 NCD 13/09 Q1020 BLU 15005KT CAVOK= METAR EHFD 220725Z АВТО 18015KT 9999 NSC 18/12 Q1019= METAR EHFZ 220725Z АВТО 19015KT 9999 NSC 18/15 Q1018= METAR EHGG 220725Z AUTO 18003KT 150V220 9000 NCD 12/10 Q1020 NOSIG= METAR EHGR 220725Z AUTO VRB03KT 9999 BKN290/// OVC370/// 11/09 Q1020 BLU 17004KT CAVOK= METAR EHHW 220725Z АВТО 21010KT 9999 NSC 18/12 Q1020= METAR EHJA 220725Z АВТО 17012KT 8000 NSC 18/15 Q1018= METAR EHJR 220655Z АВТО 18010G11KT //// ///////// 19/14 Q1018 W///H6= МЕТАР ЭХКД 220725З АВТО 16007КТ 130В210 9999 БКН057/// ОВК079/// 15/10 К1019 БЛУ 18005КТ КАВОК= МЕТАР ЭХКВ 220725Z АВТО 18013КТ 9999 НСК 19/15 Q1019= METAR EHLW 220725Z AUTO 18005KT 150V210 9999 OVC270/// 14/10 Q1020 BLU 17005KT CAVOK= METAR EHMA 220725Z АВТО 20012KT 9999 NSC 15/10 Q1020= METAR EHMG 220725Z АВТО 18015KT 9999 NSC 21/12 Q1019= METAR EHPG 220725Z АВТО 20013KT 160V300 9000 NSC 19/14 Q1019= METAR EHQE 220725Z АВТО 18014KT 9999 FEW042/// 19/14 Q1019= METAR EHRD 220725Z АВТО 15005KT 9999 NSC 15/12 Q1020 NOSIG= METAR EHSA 220655Z АВТО 19013G14KT 9999 ///////// 19/13 Q1019 W19/h5= METAR EHSC 220655Z AUTO 20012G13KT //// ///////// 18/15 Q1019 W20/h5= METAR EHVK 220725Z AUTO 16004KT 110V170 9999 NCD 13/09 Q1021 BLU 16005KT CAVOK RMK CB INFO NOT AVBL= METAR EHVL 220725Z АВТО 16009KT 9999 OVC080/// 17/12 Q1019 BLU= METAR EHWO 220725Z AUTO VRB02KT 9999 OVC190/// 15/12 Q1020 BLU VRB02KT CAVOK BECMG 18005KT= METAR ELLX 220720Z 07005KT CAVOK 12/08 Q1022 NOSIG= МЕТАР BGBW 220650Z 08008KT 050V110 9999 FEW120 04/M14 Q1011= МЕТАР БГГХ 220650З АВТО 17004КТ 100В190 9999НДВ НЦД 00/М07 Q1011= МЕТАР БГДЖН 220650З АВТО 07015КТ 360В100 9999НДВ БКН150/// 01/М17 Q1014= МЕТАР БГКК 220650З АВТО 23003КТ 9999НДВ НЦД 01/М07 Q1007= МЕТАР БГСФ 220650Z АВТО 04007КТ 9999НДВ НЦД М06/М12 Q1014= METAR BGTL 220658Z AUTO 10006KT 9999 OVC040 M01/M04 A2984 RMK AO2 SLP090 T10151045 $= МЕТАР БИАР 220700Z 16011KT 9999 BKN049 09/05 Q0983= METAR BIEG 220700Z 18025G38KT 9999 -RA SCT025 BKN035 10/04 Q0990= METAR BIIS 220700Z 02030G40KT 9999 +RA SCT015 OVC020 06/05 Q0985= METAR BIKF 220700Z 35003KT 9999 VCSH FEW012 SCT028 BKN035 08/07 Q0983= METAR BIRK 220700Z 14003KT 110V170 9999 FEW030 SCT042 BKN048 06/04 Q0982= METAR BIVM 220700Z 21011KT 9999-RA SCT013 BKN035 OVC040 08/07 Q0985= METAR EFET 220720Z АВТО 19006KT 130V220 9999 OVC007 08/07 Q1025= МЕТАР ЭФХА 220720Z 03006KT 9999 OVC032 08/05 Q1024= МЕТАР EFHF 220720Z VRB04KT 9999 BKN040 10/07 Q1022= METAR EFHK 220720Z 02009KT 9999 BKN038 09/06 Q1022 NOSIG= METAR EFIV 220720Z 19004KT 9999 FEW007 BKN022 10/09 Q1026= МЕТАР ЭФДЖО 220720З 03007КТ 360В070 9999 ОВК031 09/06 К1024= METAR EFJY 220720Z 05005KT 9999 FEW015 BKN035 08/06 Q1024= МЕТАР ЭФКЭ 220720З АВТО 12003КТ 9999-ШРА БКН091 08/06 Q1027= МЕТАР ЭФКИ 220720Z 05005KT 9999 OVC030 08/04 Q1026= МЕТАР ЭФКК 220720З 12005КТ 080В160 9999 БКН033 08/04 К1025= METAR EFKS 220720Z АВТО 34001KT 9999 OVC017 07/05 Q1027= METAR EFKT 220720Z АВТО 16003KT 9999 OVC004 10/09 Q1026= METAR EFKU 220720Z VRB03KT 9999 FEW015 OVC037 09/06 Q1025= METAR EFLP 220720Z АВТО 04007KT 360V070 9999 BKN013 BKN019 10/07 Q1022= МЕТАР ЭФМА 220720Z 05005KT 360V100 CAVOK 13/08 Q1022= METAR EFMI 220720Z АВТО VRB03KT 9999 FEW013 OVC031 10/07 Q1023= METAR EFOU 220720Z АВТО 10006KT 9999 OVC031/// 09/04 Q1027= МЕТАР ЭФПО 220720З АВТО 06006КТ 020В100 9999 ФЭВ025/// 09/04 Q1024= METAR EFRO 220720Z 15005KT 120V190 9999 FEW046 BKN095 07/04 Q1027= METAR EFSA 220720Z АВТО 03005KT 350V100 9999 OVC011 09/07 Q1023= METAR EFSI 220720Z АВТО 10006KT 040V140 9999 FEW025 08/04 Q1025= МЕТАР ЭФТП 220720Z 03004KT 9999 BKN029 08/04 Q1024= METAR EFTU 220720Z АВТО 08007KT 9999 OVC031/// 09/05 Q1023= МЕТАР ЭФУТ 220720Z 02006KT 340V060 9999 BKN012 BKN063 10/07 Q1022= METAR EFVA 220720Z АВТО 13007KT 9999 BKN079/// 08/04 Q1025= МЕТАР ЭКАХ 220720Z АВТО 09001КТ 9999НДВ НЦД 13/11 Q1023= МЕТАР ЭКАВ 220720З АВТО ///// 9999НДВ ФЭВ023/// БКН180/// ///// Q1024= МЕТАР ЭКБИ 220650Z АВТО 10006КТ 9999НДВ НЦД 12/11 Q1022= METAR EKCH 220720Z 12006KT CAVOK 16/10 Q1023 NOSIG= МЕТАР ЭКЕВ 220720З АВТО 11005КТ 050В140 9999НДВ НЦД 12/10 Q1021= МЕТАР ЭКГК 220720Z АВТО 19013КТ 9999НДВ 18/13 Q1019= METAR EKGF 220720Z 17015KT CAVOK 17/14 Q1019= МЕТАР ЭХА 220720Z АВТО 17014КТ 9999НДВ 18/13 Q1020= МЕТАР ЭХД 220720З АВТО 16017КТ 9999НДВ 17/14 Q1018= МЕТАР ЭХН 220720Z АВТО 15014КТ 9999НДВ НЦД 17/12 Q1022= МЕТАР ЭХР 220720З АВТО 15011КТ 9999НДВ +РА НЦД 18/М44 Q1021= METAR EKKA 220720Z AUTO 14006KT 110V170 9999NDV NCD 13/11 Q1022 NOSIG= METAR EKOD 220650Z 10002KT CAVOK 10/09 Q1023= МЕТАР ЭКРК 220720Z АВТО 00000КТ 9999НДВ SCT050/// 14/12 Q1023= МЕТАР ЭКРН 220720З АВТО 05002КТ 9999НДВ SCT062/// 16/10 Q1023= METAR EKSB 220720Z 12004KT 9999 FEW012 SCT053 15/12 Q1022= МЕТАР ЭКСН 220650Z 19003KT 9999 FEW025 11/10 Q1022= METAR EKSP 220720Z 13005KT CAVOK 14/12 Q1022 NOSIG= МЕТАР ЭКТЕ 220720Z АВТО 17015КТ 9999НДВ 18/14 Q1020= МЕТАР ЭКВД 220650З 12006КТ 100В160 ЦАВОК 13/11 Q1022= МЕТАР ЭКВГ 220650З АВТО 16011КТ 9000НДВ SCT010/// 10/09 Q1008= METAR EKVJ 220650Z 12006KT CAVOK 10/09 Q1022= METAR EKYT 220720Z 16003KT CAVOK 14/13 Q1022= МЕТАР ЭНАЛ 220720Z 14004KT 9999 BKN064 14/13 Q1019= METAR ENAN 220720Z 25002KT CAVOK 10/10 Q1023= METAR ENAT 220650Z 16004KT 110V190 CAVOK 10/07 Q1024 RMK ВЕТЕР 700FT 16012KT= METAR ENBL 220720Z VRB02KT CAVOK 12/09 Q1020= МЕТАР ЭНБН 220720З 04003КТ 310В090 КАВОК 16/11 К1021= METAR ENBO 220720Z 10011KT CAVOK 14/11 Q1021 NOSIG= METAR ENBR 220720Z 13004KT 9999 FEW020 SCT060 BKN090 15/08 Q1019 NOSIG RMK ВЕТЕР 1200FT 14012KT= МЕТАР ENBS 220650Z 22012KT 9999 SCT007 SCT028 09/08 Q1024 = МЕТАР ENBV 220650Z 26007KT CAVOK 11/08 Q1024= МЕТАР ENCN 220720Z 06006KT 9999 SCT030 SCT068 13/12 Q1021= МЕТАР ENDR 220720Z АВТО 08003KT 14/11 Q1020= METAR ENDU 220720Z 00000KT 9999 FEW060 SCT070 12/09 Q1023 NOSIG RMK ВЕТЕР 1100FT 15005KT ВЕТЕР 2200FT 13010KT= МЕТАР ЭНЕК 220720Z 14021KT CAVOK 16/14 Q1017 W17/S3= METAR ENEV 220650Z 00000KT 9999 BKN053 09/09 Q1023 RMK ВЕТЕР 1400FT 11009KT= METAR ENFB 220720Z АВТО 16031KT 9999NDV SCT010/// BKN089/// 14/14 Q1015 W///S4= МЕТАР ENFL 220720Z 11010KT 9999 FEW040 16/09 Q1019= METAR ENGC 220650Z 19031KT 9000 FEW006 14/13 Q1016 W12/S4= МЕТАР ЭНГМ 220720З 19004КТ 4800 -ШРА БР БКН002 13/13 Q1022 ТЕМПО 7000 БКН008= METAR ENHD 220720Z 12006KT CAVOK 15/12 Q1019= METAR ENHE 220720Z 19010KT 9999 FEW015 BKN095 14/10 Q1020 W///S3= METAR ENHF 220720Z 24009KT 9999 FEW045 BKN070 10/08 Q1023 RMK ВЕТЕР 1254FT 21007KT= METAR ENHM 220720Z 15026KT 9000 FEW008 15/14 Q1015 W15/S4= МЕТАР ENKB 220720Z 08003KT 9999 FEW003 SCT047 13/13 Q1020= METAR ENKR 220720Z 18005KT 9999 BKN006 10/10 Q1025 RMK ВЕТЕР 731FT 23012KT= METAR ENLA 220720Z AUTO 15026KT 9999NDV BKN140/// 16/14 Q1016 W///S4= МЕТАР ENLK 220650Z 05002KT CAVOK 10/10 Q1022= METAR ENMH 220650Z 15011KT CAVOK 11/07 Q1023= МЕТАР ЭНМЛ 220720З 07007КТ 9999 -ШРА ФЭВ007 СКТ066 БКН078 14/13 Q1020= METAR ENMS 220720Z 00000KT CAVOK 10/09 Q1022 RMK ВЕТЕР 412FT VRB01KT= METAR ENNA 220720Z 17012KT CAVOK 11/08 Q1024 RMK ВЕТЕР 1800FT 26003KT= METAR ENNE 220720Z 16006KT 0200 FG-RA VV001 12/12 Q1020 W///S4= METAR ENNM 220720Z 05006KT CAVOK 15/12 Q1021= METAR ENOA 220720Z 16028KT 9000 FEW015 14/14 Q1016 W///S4= METAR ENOL 220720Z VRB01KT 3000 2000NE -DZ BR VV002 13/13 Q1021 TEMPO 1000 BR VV002= METAR ENOV 220650Z VRB02KT CAVOK 13/10 Q1019 RMK ВЕТЕР 2175FT 14014KT= METAR ENQC 220720Z АВТО 14023KT 9999NDV NCD 14/13 Q1017 W///S4= METAR ENQR 220720Z AUTO 15025KT 9000NDV FEW005/// 14/13 Q1015 W///S4= METAR ENRA 220720Z 32001KT 9999 FEW001 BKN110 10/09 Q1023= METAR ENRM 220720Z 21004KT 9999 FEW040 BKN110 15/12 Q1021= METAR ENRO 220720Z VRB02KT 9999 FEW027 BKN100 10/10 Q1022= METAR ENRS 220650Z 09012KT 9999 FEW005 BKN080 11/11 Q1021= METAR ENRY 220720Z 10003KT CAVOK 13/13 Q1023 NOSIG= METAR ENSB 220720Z 25011KT 5000 -DZ BR VV018 04/03 Q1011 TEMPO VV012 RMK WIND 1400FT 23014KT= METAR ENSD 220720Z 03005KT 9999 FEW005 SCT073 13/12 Q1020 RMK ВЕТЕР 1138FT 09004KT= METAR ENSE 220720Z AUTO 17030KT 9999NDV BKN086/// 14/13 Q1015 W///S4= METAR ENSF 220720Z AUTO 16031KT 8000NDV FEW010/// BKN020/// BKN090/// 15/13 Q1015 W///S4= METAR ENSG 220650Z 08004KT 0400 FG VV006 11/11 Q1021 RMK WIND 3806FT 11003KT= МЕТАР ENSH 220650Z 04007KT CAVOK 10/10 Q1022= METAR ENSK 220650Z VRB02KT 9999 1000 Вт PRFG FEW001 SCT003 10/09 Q1022= METAR ENSL 220720Z 15030KT 9999 FEW012 16/13 Q1015 W14/S4= МЕТАР ЭНСО 220720Z 11007KT 9999 FEW013 BKN060 15/10 Q1019= METAR ENSR 220720Z 15008KT CAVOK 10/07 Q1024 ВЕТЕР 1119FT 12009KT= METAR ENSS 220650Z 21010KT 9999 FEW008 SCT036 10/08 Q1024 RMK WIND 500FT 22017KT= METAR ENST 220720Z VRB01KT CAVOK 13/12 Q1021 RMK ВЕТЕР 300FT 36003KT= METAR ENTC 220720Z 00000KT 9999 BKN062 09/08 Q1024 NOSIG RMK ВЕТЕР 2600FT 19006KT= МЕТАР ENTO 220720Z 36001KT 4100 VCFG SCT045 BKN100 14/14 Q1022= METAR ENUG 220720Z АВТО 26010KT 9999NDV SCT038/// BKN062/// 11/10 Q1021 W///S4= METAR ENVA 220720Z 26003KT CAVOK 14/13 Q1020 NOSIG RMK ВЕТЕР 670FT 30004KT= METAR ENVD 220650Z VRB02KT 9999 BKN014 10/09 Q1025= METAR ENVH 220720Z АВТО 16018KT 9999NDV NCD 17/14 Q1017 W///S3= METAR ENVR 220650Z 03009KT CAVOK 13/11 Q1022= METAR ENZV 220720Z 10005KT 9999 FEW033 SCT059 BKN096 16/12 Q1019 TEMPO SHRA= METAR ESCF 220720Z VRB02KT CAVOK 10/10 Q1023= METAR ESDF 220720Z VRB01KT CAVOK 10/09 Q1023= METAR ESGG 220720Z 18003KT CAVOK 13/10 Q1023= METAR ESGJ 220720Z 00000KT CAVOK 09/08 Q1023= METAR ESGP 220720Z VRB02KT CAVOK 13/10 Q1023= METAR ESGR 220720Z АВТО 00000KT 9999 FEW088/// BKN120/// 10/08 Q1023= METAR ESGT 220720Z 15004KT CAVOK 12/10 Q1023= МЕТАР ESIB 220720Z VRB02KT CAVOK 12/10 Q1023= МЕТАР ЭСКМ 220720З АВТО 04003КТ 9999 SCT005/// БКН008/// БКН029/// 12/12 Q1023= МЕТАР ЭСКН 220720Z 36004KT 330V050 CAVOK 13/10 Q1022= МЕТАР ЭСМК 220720Z VRB01KT CAVOK 12/10 Q1023= METAR ESMQ 220720Z VRB02KT CAVOK 13/10 Q1023= METAR ESMS 220720Z 10002KT CAVOK 14/10 Q1023= METAR ESMT 220720Z 06002KT CAVOK 13/09 Q1023= METAR ESMX 220720Z 00000KT CAVOK 10/09 Q1023= МЕТАР ЕСНД 220720Z АВТО 08005KT 9999 OVC002/// ///// Q1023= METAR ESNG 220720Z 17006KT 9999 BKN009 OVC015 08/07 Q1025= МЕТАР ЕСНК 220720Z VRB02KT 9999 FEW020 BKN042 12/11 Q1024= METAR ESNL 220720Z AUTO VRB02KT 6000 BR OVC004/// 11/09 Q1025= METAR ESNN 220720Z 00000KT 9999 BKN049 12/10 Q1024= METAR ESNO 220720Z VRB02KT 9999 OVC028 11/08 Q1024= METAR ESNQ 220720Z VRB03KT 9999 OVC003 07/07 Q1024= МЕТАР ЕСНС 220720Z 36003KT 1500 BR OVC002 10/10 Q1025= МЕТАР ЕСНУ 220720Z 02004KT 9999 BKN007 12/11 Q1025= METAR ESNV 220720Z 29002KT 9999 FEW003 SCT004 OVC015 10/07 Q1025 = METAR COR ESNX 220720Z 14003KT 080V160 6000 BR OVC002 08/08 Q1025= МЕТАР ЭСНЗ 220720З 14006КТ 9999 SCT009 SCT020 11/10 Q1023= METAR ESOE 220720Z 36003KT CAVOK 12/09 Q1023= МЕТАР ЭСОК 220720Z VRB02KT 9999 SCT015 BKN037 13/11 Q1023= METAR ESOW 220720Z 01006KT CAVOK 11/09 Q1023= МЕТАР ЭСПА 220720Z 14008KT 9999 BKN011 11/09 Q1026= METAR ESPE 220720Z VRB01KT 9999 FEW002 SCT004 BKN007 09/09 Q1026= METAR ESSA 220720Z 36005KT CAVOK 12/10 Q1022 NOSIG= METAR ESSB 220720Z 01004KT 330V060 CAVOK 13/10 Q1022= METAR ESSD 220720Z 11002KT 9999 BKN026 11/10 Q1024= METAR ESSL 220720Z 29002KT CAVOK 12/10 Q1023= METAR ESSP 220720Z 00000KT CAVOK 12/10 Q1023= METAR ESST 220720Z 00000KT 9999 BKN005 OVC025 14/14 Q1023= METAR ESSV 220720Z 35006KT 9999 FEW020 14/10 Q1022= METAR ESTA 220720Z 13003KT CAVOK 12/09 Q1023= METAR ESTL 220720Z 12002KT CAVOK 09/07 Q1024= METAR ESUD 220720Z AUTO VRB02KT 9999 FEW005/// OVC009/// 10/09 Q1025= METAR COR ESUP 220720Z 18003KT 9999 OVC011 10/09 Q1026= METAR ESUT 220720Z AUTO 15006KT 9999 OVC011/// 10/09 Q1024= METAR LIBA 220655Z 30006KT 9999 FEW035 SCT060 17/14 Q1016= METAR LIBC 220650Z 35003KT 9999 SCT060 20/16 Q1016= METAR LIBD 220720Z 31007KT 9999 FEW020 20/16 Q1016= METAR LIBE 220655Z 33008KT 9999 SCT013 13/11 Q1016 RMK BKN SCT090 MON LIB VAL NIL VIS MIN 9999= METAR LIBF 220650Z 28008KT 9999 BKN035 18/16 Q1017= METAR LIBG 220650Z 35005KT 310V030 CAVOK 21/15 Q1015= METAR LIBH 220655Z 31008KT 9999 FEW035 19/17 Q1015 RMK SCT QUK 1 QUL 1 NW VIS MAR 20 KM VIS MIN 9999= METAR LIBN 220655Z 10005KT 9999 FEW013 19/18 Q1015= METAR LIBP 220650Z 20003KT 170V240 9999 FEW030 BKN060 18/16 Q1018= METAR LIBQ 220655Z 28005KT 9999 BKN010 SCT046 10/08 Q1019= METAR LIBR 220715Z 30011KT 9999 FEW020 21/18 Q1016 NOSIG= METAR LIBS 220655Z 31001KT 8000 SCT002 BKN005 12/11 Q1019 RMK OVC MON INVIS VAR RAPID VIS MIN 4000SE= METAR LIBT 220655Z 27007KT 9999 SCT025 20/14 Q1017 RMK BKN BKN070 QUK 2 QUL 1 NW VIS MAR 15 KM VIS MIN 9999= METAR LIBU 220655Z 14001KT 0500 FG VV/// 14/13 Q1018 RMK MON INVIS VAL INVIS VIS MIN 0500= METAR LIBV 220655Z 32007KT CAVOK 17/16 Q1016= METAR LIBW 220655Z 30006KT CAVOK 19/16 Q1016 RMK BKN BKN053 QUK 2 QUL 1 W VIS MAR 16 KM MON LIB VAL NIL VIS MIN 9999= METAR LIBY 220655Z 03009KT 9999 FEW018 20/17 Q1015 RMK SCT QUK 1 QUL 1 N VIS MAR 20 KM VIS MAX 20 KM VIS MIN 9999= METAR LICA 220650Z VRB02KT 9999 SCT020 21/19 Q1016= METAR LICB 220650Z VRB02KT CAVOK 21/14 Q1018= METAR LICC 220720Z 26008KT CAVOK 23/12 Q1017= METAR LICD 220650Z 31006KT 290V350 9999 FEW020 25/18 Q1019= METAR LICE 220655Z 32004KT CAVOK 15/10 Q1017 RMK SKC MON LIB NC VAL NIL NC VIS MIN 9999= METAR COR LICF 220655Z 35004KT 9999 FEW020CB SCT025 22/17 Q1015 RMK BKN QUK 1 QUL 0 VIS MAR 20 KM MON CIME INC NC VIS MIN 9999SE= METAR LICG 220655Z /////KT 9999 FEW005 SCT015 22/19 Q1018= METAR LICJ 220720Z 36011KT 9000 VCSH SCT025 22/18 Q1018= METAR LICL 220655Z VRB02KT 9999 FEW020 21/17 Q1017 RMK FEW QUK 1 QUL 0 VIS MAR 25 KM VIS MIN 9999= METAR LICO 220655Z 30006KT CAVOK 22/16 Q1015 RMK SKC QUK 0 QUL 0 VIS MAR 30 KM VIS MIN 9999= METAR LICR 220650Z 35005KT 9999 VCSH SCT040 23/15 Q1016= METAR LICT 220655Z 29012KT 9999 FEW020 23/17 Q1017= METAR LICU 220655Z 35003KT 9999 SCT017 22/16 Q1018 RMK BKN SCT060 QUK 1 QUL 0 VIS MAR 18 KM VIS MIN 9999= METAR LICX 220655Z 26008KT 9999 SCT006 15/12 Q1019 RMK SCT MON CLD SCT NC VAL NIL NC VIS MIN 9999= METAR LICZ 220655Z 28010KT CAVOK 24/18 Q1017= METAR LIEA 220720Z 00000KT 9999 FEW025 22/16 Q1018= METAR LIEB 220655Z 24002KT 9999 FEW035 21/10 Q1016 RMK FEW QUK 1 QUL 0 VIS MAR 30 KM MON LIB VIS MIN 9999= METAR LIEC 220655Z 27010KT 9999 FEW020 20/18 Q1017 RMK FEW QUK 2 QUL 0 VIS MAR 30 KM VIS MIN 9999= METAR LIED 220655Z 00000KT 9999 FEW003 17/14 Q1017= METAR LIEE 220720Z 32003KT CAVOK 19/16 Q1018= METAR LIEF 220655Z 02003KT 9999 FEW025 24/22 Q1018 RMK FEW QUK 2 QUL 9 VIS MAR 20 KM VIS MIN 9999= METAR LIEH 220655Z 32010KT CAVOK 22/17 Q1018 RMK SKC QUK 3 QUL 0 VIS MAR 20 KM VIS MIN 9999= METAR LIEO 220720Z 25006KT 220V310 9999 -RA FEW030TCU SCT035 22/15 Q1018= METAR LIEP 220655Z 29009KT 9999 FEW015 16/11 Q1018 RMK FEW VIS MIN 9999= METAR LIMC 220720Z VRB02KT 8000 SCT040 17/14 Q1020 NOSIG= METAR LIME 220720Z 08002KT 9999 BKN030 17/13 Q1021= METAR LIMF 220720Z VRB01KT CAVOK 16/12 Q1021= METAR LIMG 220650Z 23004KT CAVOK 15/12 Q1018= METAR LIMH 220655Z /////KT CAVOK M03/M11 Q1026= METAR LIMJ 220720Z 02011KT 350V050 CAVOK 20/11 Q1019= METAR LIMK 220655Z 00000KT 4000 BR NSC 13/13 Q1020= METAR LIML 220720Z VRB02KT 9999 BKN035 18/11 Q1020 NOSIG= METAR LIMN 220655Z 00000KT 6000 FEW020 SCT040 15/13 Q1020= METAR LIMP 220650Z VRB03KT 3500 BR SCT040 BKN050 16/13 Q1020= METAR LIMS 220655Z 25003KT 4000 BR SCT006 BKN020 14/14 Q1019= METAR LIMT 220655Z 00000KT 0000 FG VV/// 09/07 Q1020= METAR LIMU 220655Z 32005KT CAVOK 18/11 Q1018= METAR LIMV 220655Z /////KT 6000 2000N SCT009 SCT012 14/12 Q1020= METAR LIMY 220655Z 01001KT CAVOK 12/10 Q1021= METAR LIMZ 220650Z VRB02KT 9000 SCT025 BKN035 13/11 Q1021= METAR LIPA 220655Z 05004KT 9999 FEW050 BKN070 16/14 Q1021= METAR LIPB 220650Z VRB02KT 9999 SCT045 SCT070 17/11 Q1020= METAR LIPC 220655Z 28008KT 9999 FEW050 17/15 Q1019= METAR LIPE 220720Z VRB02KT 9999 BKN070 17/14 Q1020= METAR LIPF 220655Z 29002KT 9999 BKN060 14/11 Q1019= METAR LIPH 220720Z 02003KT 340V070 9999 BKN050 17/11 Q1020= METAR LIPI 220655Z /////KT 9999 BKN070 15/10 Q1020= METAR LIPL 220655Z /////KT 9999 BKN040 SCT080 17/13 Q1020= METAR LIPO 220650Z 04002KT 9999 BKN040 18/12 Q1020= METAR LIPQ 220720Z 07004KT 9999 FEW090 19/08 Q1020= METAR LIPR 220715Z 29006KT 9000 NSC 18/16 Q1019= METAR LIPS 220655Z 01004KT 9999 SCT050 BKN060 16/11 Q1020= METAR LIPU 220650Z VRB03KT 9999 BKN040 15/11 Q1020= METAR LIPX 220720Z 11003KT 090V160 9999 BKN050 17/12 Q1020= METAR LIPY 220650Z 35007KT CAVOK 20/10 Q1018= METAR LIPZ 220720Z 03010KT 9999 BKN070 17/09 Q1020 NOSIG= METAR LIQB 220655Z 00000KT CAVOK 16/11 Q1018 RMK SKC VIS MIN 9999= METAR LIQC 220655Z ///04KT 9999 SCT030 19/17 Q1015 RMK SCT QUK 2 QUL 1 SE VIS MAR 20 KM VIS MIN 9999= METAR LIQJ 220655Z 08004KT 040V170 CAVOK 22/14 Q1016 RMK SCT SCT070 QUK 2 QUL 0 VIS MAR 25 KM VIS MIN 9999= METAR LIQK 220655Z /////KT 9999 FEW040 19/16 Q1015 RMK FEW QUK 1 QUL 0 VIS MAR 15 KM VIS MIN 9999= METAR LIQN 220650Z 00000KT 0300 FG VV/// 12/12 Q1017= METAR LIQO 220655Z 06016KT CAVOK 17/12 Q1016= METAR LIQR 220655Z 07004KT 9999 FEW020 12/08 Q1022 RMK FEW MON LIB NC VAL NIL NC VIS MIN 9999= METAR LIQW 220655Z 31006KT CAVOK 16/14 Q1018= METAR LIQZ 220655Z 09012KT 9999 SCT020 21/19 Q1015 RMK SCT QUK 3 QUL 2 E VIS MAR 10 KM VIS MIN 9999= METAR LIRA 220720Z 01007KT CAVOK 19/15 Q1016= METAR LIRB 220655Z 02007KT CAVOK 19/13 Q1017 RMK SCT SCT080 VIS MIN 9999= METAR LIRE 220655Z 02009KT 9999 FEW020 19/16 Q1014= METAR LIRF 220720Z 05010KT CAVOK 20/14 Q1016 NOSIG= METAR LIRG 220655Z 28003KT CAVOK 18/15 Q1016= METAR LIRH 220655Z 08003KT 9999 FEW010 SCT030 17/14 Q1016= METAR LIRK 220655Z AUTO 14007KT 040V150 //// 07/07 Q1021= METAR LIRL 220655Z 34003KT 9999 FEW025 20/17 Q1015= METAR LIRM 220655Z 04006KT 9999 SCT020 SCT030 19/17 Q1015= METAR LIRN 220720Z 05005KT 010V080 9999 SCT040 19/15 Q1016 NOSIG= METAR LIRP 220715Z 03002KT CAVOK 17/16 Q1018 NOSIG= METAR LIRQ 220720Z VRB04KT 9999 FEW080 22/11 Q1018= METAR LIRS 220655Z 09002KT CAVOK 18/13 Q1016= METAR LIRT 220655Z 25003KT 0000 FG VV/// 12/10 Q1018= METAR LIRU 220650Z VRB03KT CAVOK 18/15 Q1016= METAR LIRV 220655Z 05009KT CAVOK 17/13 Q1017= METAR LIRX 220655Z 05006KT CAVOK 17/13 Q1016= METAR LIRZ 220650Z 36007KT CAVOK 18/11 Q1018= METAR LIVC 220655Z 03015KT 0000 FG VV000 04/03 Q1023= METAR LIVD 220655Z /////KT 9999 BKN025 09/08 Q1022= METAR LIVE 220655Z 05004KT CAVOK 07/06 Q1020= METAR LIVF 220655Z 24004KT 9999 FEW027 14/07 Q1020= METAR LIVO 220655Z 17001KT 9999 FEW036 09/07 Q1021= METAR LIVP 220655Z 00000KT 0600 FG VV/// 05/03 Q1021= METAR LIVR 220655Z 31003KT 0100 FG VV/// 04/02 Q1020= METAR LIVT 220655Z 06007G21KT CAVOK 18/07 Q1019= METAR BKPR 220730Z 01006KT 9999 FEW040 BKN080 11/05 Q1020 NOSIG = METAR LATI 220720Z VRB02KT 9000 FEW004 SCT040 20/17 Q1016 NOSIG= METAR COR LDDU 220700Z 04012KT 010V070 9999 SCT031 18/08 Q1016 NOSIG= METAR LDOS 220700Z 27004KT 9999 SCT043 11/09 Q1021= METAR LDPL 220700Z 05010KT CAVOK 17/07 Q1019 NOSIG= METAR LDRI 220700Z 09008KT 040V120 9999 FEW047 18/04 Q1019= METAR LDSP 220700Z 06005KT 030V100 CAVOK 20/04 Q1017 NOSIG= METAR LDZA 220700Z 00000KT CAVOK 11/10 Q1021 NOSIG= METAR LDZD 220700Z 11003KT 060V170 CAVOK 18/08 Q1018 NOSIG= METAR LJCE 220700Z 25004KT 220V280 9999 FEW003 10/08 Q1022 RMK BLU= METAR LJLJ 220700Z VRB01KT 9999 FEW003 10/08 Q1022 NOSIG= METAR LJMB 220700Z VRB01KT CAVOK 12/08 Q1022= METAR LJPZ 220700Z VRB01KT CAVOK 16/08 Q1020= METAR LQBK 220700Z 18003KT 9999 FEW013 12/10 Q1021 NOSIG= METAR LQMO 220700Z 13004KT 9999 FEW050 15/07 Q1016= METAR LQSA 220700Z VRB02KT 3500 BR SCT007 BKN015 09/07 Q1022 BECMG NSW= METAR LQTZ 220700Z VRB01KT 0350 R09/0325N FG OVC002 08/08 Q1021= METAR LWOH 220730Z 34010KT 9999 BKN040 13/07 Q1018= METAR LWSK 220700Z 19003KT 9999 FEW033 SCT080 15/08 Q1019 NOSIG= METAR LYBE 220700Z 25006KT 230V290 CAVOK 12/10 Q1021 NOSIG= METAR LYBT 220700Z 23003KT 170V250 CAVOK 11/10 Q1020 NOSIG= METAR LYKV 220700Z VRB01KT 9999 FEW010 11/08 Q1021 NOSIG= METAR LYNI 220700Z VRB01KT CAVOK 12/07 Q1021 NOSIG= METAR LYPG 220700Z 34008KT 9999 FEW033 SCT040 19/08 Q1016 NOSIG= METAR LYTV 220700Z VRB02KT 9999 FEW040 SCT050 20/10 Q1015 NOSIG= METAR LYUZ 220700Z 31006KT 270V340 9999 FEW020 09/09 Q1020= METAR LYVR 220700Z VRB02KT CAVOK 11/09 Q1020 NOSIG= METAR GCFV 220700Z 35007KT 9999 FEW030 20/17 Q1020= METAR GCGM 220700Z 29006KT 9999 FEW025 19/14 Q1021 RMK R09/31005KT ARP/31006KT= METAR GCHI 220700Z 01010KT 340V040 9999 FEW023 22/18 Q1021= METAR GCLA 220700Z 29011KT 260V320 9999 SCT040 22/14 Q1021= METAR GCLP 220700Z 36013KT 9999 FEW030 22/16 Q1020 NOSIG= METAR GCRR 220700Z 02007KT 9999 FEW025 SCT035 20/17 Q1020= METAR GCTS 220700Z 36006KT 9999 FEW019 20/13 Q1020 NOSIG= METAR GCXO 220700Z 32007KT 280V020 9999 FEW003 BKN012 17/15 Q1023 NOSIG= METAR LEAB 220700Z 00000KT CAVOK 13/09 Q1020 NOSIG= METAR LEAG 220700Z AUTO 08003KT CAVOK 21/16 Q1018= METAR LEAL 220700Z 35003KT 300V060 9999 FEW010 22/18 Q1017 NOSIG= METAR LEAM 220700Z 00000KT 9999 FEW080 21/13 Q1016= METAR LEAO 220700Z 00000KT CAVOK 11/03 Q1019= METAR LEAS 220700Z VRB01KT 9999 BKN043 16/15 Q1019 NOSIG= METAR LEBA 220700Z 26003KT 240V300 9999 OVC014 18/15 Q1019= METAR LEBB 220700Z 00000KT 9000 FEW020 SCT030 BKN045 18/17 Q1019 NOSIG= METAR LEBG 220700Z 17001KT 7000 NSC 09/08 Q1020= METAR LEBL 220700Z 32009KT 280V020 9999 FEW025 19/14 Q1019 NOSIG= METAR LEBT 220700Z AUTO 00000KT 9999 // NCD 17/16 Q1019= METAR LEBZ 220700Z 00000KT 8000 NSC 13/11 Q1019= METAR LECH 220700Z AUTO VRB01KT 9999 NCD 16/14 Q1019= METAR LECO 220700Z 00000KT 9999 FEW035 14/13 Q1020 NOSIG= METAR LECV 220700Z 00000KT CAVOK 18/02 Q1020= METAR LEEC 220700Z VRB02KT 7000 BKN021 18/17 Q1018= METAR LEGA 220700Z 18002KT CAVOK 16/06 Q1020= METAR LEGE 220700Z VRB01KT 9999 VCFG FEW070 15/14 Q1019= METAR LEGR 220700Z 00000KT 9999 FEW050 SCT070 14/08 Q1020= METAR LEGT 220700Z 09003KT CAVOK 14/03 Q1019= METAR LEHC 220700Z 36001KT CAVOK 15/07 Q1020= METAR LEIB 220700Z 33003KT 240V010 9999 FEW015 21/20 Q1017 NOSIG= METAR LEJR 220700Z VRB02KT 9000 SCT023 19/17 Q1018= METAR LELC 220700Z VRB01KT CAVOK 19/17 Q1017 NOSIG= METAR LELL 220700Z 00000KT CAVOK 17/16 Q1019= METAR LELN 220700Z 00000KT CAVOK 10/09 Q1020= METAR LELO 220700Z 00000KT CAVOK 12/09 Q1020= METAR LEMD 220700Z 01003KT CAVOK 11/04 Q1019 NOSIG= METAR LEMG 220700Z 00000KT CAVOK 20/12 Q1017 NOSIG= METAR LEMH 220700Z 05004KT 9999 FEW020 22/18 Q1018= METAR LEMO 220700Z 09002KT 7000 FEW018 16/15 Q1019 NOSIG= METAR LEPA 220700Z VRB02KT 9999 FEW002 19/19 Q1018 NOSIG= METAR LEPP 220700Z 17002KT 9999 FEW010 12/11 Q1020= METAR LERI 220700Z 00000KT CAVOK 18/14 Q1018 NOSIG= METAR LERS 220700Z 03005KT 350V060 9999 FEW022 19/16 Q1019= METAR COR LERT 220700Z VRB02KT 9999 BKN020 21/17 Q1018 NOSIG= METAR LESA 220700Z 00000KT CAVOK 07/06 Q1020= METAR LESO 220700Z VRB02KT 9999 FEW017 SCT030 17/16 Q1019= METAR LEST 220700Z 00000KT 7000 BCFG SCT005 BKN008 14/13 Q1020 TEMPO 3000 BR= METAR LETO 220700Z 03003KT CAVOK 10/03 Q1020 NOSIG= METAR LEVC 220700Z 33004KT 9999 FEW025 19/16 Q1018 NOSIG= METAR LEVD 220700Z 08003KT CAVOK 09/07 Q1019= METAR LEVS 220700Z 00000KT CAVOK 17/03 Q1019= METAR LEVT 220700Z 00000KT 8000 FEW008 SCT019 14/13 Q1020= METAR LEVX 220700Z 00000KT 6000 VCFG FEW040 14/13 Q1019 NOSIG= METAR LEXJ 220700Z 00000KT 9999 SCT023 BKN034 15/14 Q1019= METAR LEZG 220700Z 30003KT 270V340 CAVOK 15/11 Q1019= METAR LEZL 220700Z 07002KT 7000 SCT020 18/16 Q1018 NOSIG= METAR LPAZ 220700Z 34005KT 9999 FEW012 BKN038 21/18 Q1022= METAR LPBJ 220700Z 29006KT CAVOK 11/11 Q1020= METAR LPCS 220700Z 32003KT 9999 FEW017 15/12 Q1020= METAR LPFR 220700Z VRB01KT CAVOK 17/11 Q1018= METAR LPHR 220700Z 07005KT 9999 FEW015 SCT040 20/18 Q1021= METAR LPLA 220700Z /////KT 9999 SCT014 SCT030 19/18 Q1022= METAR LPMA 220700Z 35005KT 9999 FEW016 20/15 Q1022= METAR LPPD 220700Z 34007KT 9999 FEW016 20/17 Q1021= METAR LPPR 220700Z 00000KT 9999 FEW040 12/12 Q1019= METAR LPPS 220700Z 34004KT 9999 FEW015 19/16 Q1022= METAR LPPT 220700Z 31006KT 280V340 9999 FEW010 15/13 Q1019= METAR LXGB 220650Z 20009KT 9999 FEW024 BKN250 21/16 Q1018 NOSIG= METAR LCEN 220720Z 29007KT 9999 FEW025TCU 28/15 Q1012 NOSIG= METAR LCLK 220700Z 24010KT 200V260 9999 FEW020TCU 29/18 Q1012 NOSIG= METAR LCPH 220700Z 26012KT 9999 FEW020TCU SCT040 27/20 Q1013= METAR LCRA 220650Z 28012KT 9999 FEW030 27/18 Q1013 BLU NOSIG= METAR LGAD 220720Z 00000KT 9999 FEW020 25/17 Q1014= METAR LGAL 220720Z 02010KT 9999 SCT025 15/11 Q1016= METAR LGAV 220720Z VRB01KT 9999 FEW020 21/17 Q1015 NOSIG= METAR LGBL 220720Z 29009KT 9999 SCT030 BKN080 19/15 Q1016 NOSIG= METAR LGEL 220720Z 00000KT 9999 FEW018 SCT025 24/15 Q1014= METAR LGHI 220650Z 04004KT 9999 FEW020 BKN080 22/16 Q1013= METAR LGIO 220720Z /////KT 9999 FEW004 SCT025 BKN080 17/15 Q1016= METAR LGIR 220720Z 35005KT 9999 FEW020 SCT080 26/19 Q1014 NOSIG= METAR LGKF 220650Z 34004KT 9999 FEW018 22/18 Q1015= METAR LGKL 220720Z 00000KT 9999 FEW030 23/17 Q1014= METAR COR LGKO 220720Z 30005KT 250V350 9999 FEW018 24/17 Q1014= METAR LGKP 220720Z 27014KT 9999 FEW018 BKN025 24/16 Q1014= METAR LGKR 220720Z 00000KT 9999 FEW025TCU BKN080 22/19 Q1014 NOSIG= METAR LGKV 220720Z 05007KT 9999 FEW025 SCT040 18/15 Q1016= METAR LGKZ 220650Z /////KT 8000 FEW004 BKN025 OVC070 11/09 Q1017 RERA= METAR LGLM 220720Z 04016KT 9999 FEW018 SCT080 19/15 Q1015= METAR LGMK 220650Z 01004KT 9999 SCT018 BKN080 23/17 Q1013= METAR LGMT 220720Z 00000KT 9999 FEW025 SCT030 BKN100 20/16 Q1014= METAR LGNX 220650Z 32004KT 9999 FEW020 SCT080 24/18 Q1013= METAR LGPA 220650Z VRB02KT 9999 FEW030 24/18 Q1013= METAR LGPZ 220720Z VRB03KT 9999 FEW018 SCT080 23/17 Q1015= METAR LGRP 220720Z 27007KT 9999 FEW018 26/17 Q1012 NOSIG= METAR LGRX 220720Z 00000KT 9999 FEW020 23/20 Q1015= METAR LGSA 220720Z 32012KT 9999 FEW020TCU SCT080 25/18 Q1014= METAR LGSK 220650Z 01006KT 9999 FEW012 BKN030 OVC080 18/17 Q1015= METAR LGSM 220650Z 00000KT 9999 FEW025 SCT080 22/16 Q1013= METAR LGSO 220650Z 00000KT 9999 FEW018TCU BKN090 23/17 Q1014= METAR LGSR 220720Z 09005KT 9999 FEW015 FEW020TCU SCT080 24/19 Q1013= METAR LGTS 220720Z 34006KT 9999 -RA FEW008 FEW020TCU SCT035 17/10 Q1017 NOSIG= METAR LGZA 220720Z VRB02KT 9999 FEW018 22/19 Q1015= METAR LTAC 220720Z VRB03KT 9999 SCT040 16/08 Q1017 NOSIG= METAR LTAF 220720Z 07007KT 020V110 9999 SCT036 27/20 Q1011 NOSIG= METAR LTAG 220720Z 06006KT 9999 SCT030 26/18 Q1012 NOSIG= METAR LTAI 220720Z 02005KT 340V050 9999 SCT030 27/14 Q1012 NOSIG= METAR LTAJ 220720Z VRB02KT 9999 SCT035 23/16 Q1015 NOSIG= METAR LTAL 220650Z 31006KT 9999 -SHRA SCT006 BKN025 09/08 Q1017= METAR LTAN 220650Z 02005KT 320V050 9999 SCT040 BKN090 15/11 Q1018 NOSIG= METAR LTAP 220720Z 01010KT 9999 FEW020 SCT030 BKN090 16/11 Q1015 NOSIG= METAR LTAR 220650Z 21006KT 190V250 9999 FEW030CB BKN035 10/09 Q1018= METAR LTAS 220650Z 09004KT 050V120 7000 SCT027 BKN180 16/14 Q1016= METAR LTAT 220720Z 05006KT 9999 SCT040 BKN100 22/13 Q1015 NOSIG= METAR LTAU 220720Z 00000KT 9999 SCT040 BKN100 15/11 Q1017 NOSIG= METAR LTAW 220650Z 04010KT 9999 SCT030 BKN090 18/12 Q1015= METAR LTAY 220650Z 10003KT 050V150 9999 FEW035 17/12 Q1017= METAR LTAZ 220720Z VRB03KT 9999 SCT040 BKN100 18/12 Q1017= METAR LTBA 220720Z 34010KT 9999 SCT032 BKN080 17/14 Q1017 RESHRA NOSIG= METAR LTBD 220650Z 07006KT 9999 FEW032 BKN100 21/15 Q1014= METAR LTBF 220650Z 05003KT 010V090 9999 SCT035 BKN100 18/13 Q1016 NOSIG= METAR LTBH 220650Z 04017KT 9999 FEW015 SCT035 BKN100 17/14 Q1015 RESHRA= METAR LTBJ 220720Z VRB02KT CAVOK 22/15 Q1014 NOSIG= METAR COR LTBO 220650Z VRB02KT FEW040 SCT200 15/09 Q1016= METAR LTBQ 220650Z 00000KT 6000 SCT030 BKN090 16/15 Q1016 NOSIG= METAR LTBR 220720Z 11005KT 9999 SCT035 BKN100 15/14 Q1016 NOSIG= METAR LTBS 220720Z 36007KT 320V040 CAVOK 26/12 Q1013 BECMG TL0900 22012KT= METAR LTBU 220720Z 35011KT 6000 -SHRA BKN030 BKN080 14/12 Q1017= METAR LTBY 220650Z 27004KT 230V300 9999 SCT040 BKN100 13/10 Q1017= METAR LTCA 220650Z VRB04KT 9999 SCT035 BKN100 23/10 Q1016 NOSIG= METAR LTCB 220650Z 24005KT 210V270 6000 -SHRA FEW021 BKN030 19/17 Q1013= METAR LTCC 220720Z 21015KT 9999 FEW040 SCT100 26/09 Q1015 NOSIG= METAR LTCD 220650Z VRB01KT 9999 SCT040 BKN090 15/11 Q1016 NOSIG= METAR LTCE 220720Z VRB04KT 9999 SCT035 BKN080 14/07 Q1020 BECMG TL0900 23012KT= METAR LTCF 220650Z 00000KT 9999 SCT035 13/04 Q1021= METAR LTCG 220720Z VRB05KT 9999 BKN035 BKN100 22/15 Q1013 NOSIG= METAR LTCI 220650Z 30005KT 9999 SCT040 17/08 Q1021 NOSIG= METAR LTCJ 220720Z VRB04KT 9999 FEW040 BKN100 28/10 Q1015= METAR LTCK 220650Z 12003KT 060V180 9999 SCT035 BKN100 17/08 Q1019= METAR LTCL 220650Z 24004KT 9999 SCT040 BKN100 23/10 Q1017= METAR LTCM 220650Z 30008KT 4000 SHRA SCT009 BKN025 BKN080 15/13 Q1016= METAR LTCN 220650Z 29004KT 240V330 9999 FEW035 SCT100 21/18 Q1015 RESHRA= METAR LTCO 220650Z 04003KT 340V150 9999 SCT030 BKN120 13/05 Q1021= METAR LTCP 220650Z 22003KT 160V270 9999 SCT040 BKN100 22/14 Q1015= METAR LTCR 220650Z VRB02KT CAVOK 26/11 Q1015= METAR LTCS 220720Z 20006KT 150V260 CAVOK 24/11 Q1017= METAR LTCT 220650Z 36003KT 310V110 9999 SCT035 BKN070 19/07 Q1018= METAR LTCU 220650Z VRB02KT 9999 SCT035 BKN100 18/09 Q1018= METAR LTCV 220650Z 12008KT CAVOK 27/07 Q1016= METAR LTCW 220650Z 21003KT CAVOK 18/03 Q1023= METAR LTDA 220650Z 04003KT 350V080 9999 SCT030TCU 25/19 Q1013= METAR LTFC 220720Z VRB02KT 9999 FEW035 SCT100 18/12 Q1016= METAR LTFD 220650Z 09009KT 9999 SCT035 BKN100 18/14 Q1014= METAR LTFE 220720Z VRB02KT 9999 FEW035 SCT200 25/16 Q1013 NOSIG= METAR LTFG 220650Z VRB03KT 9999 FEW030 29/18 Q1011= METAR LTFH 220650Z 27008KT 8000 -SHRA SCT015 BKN030 BKN080 17/14 Q1016 NOSIG= METAR LTFJ 220720Z 02007KT 9999 SCT035 BKN100 17/13 Q1016 NOSIG= METAR LTFK 220650Z VRB07KT 6000 2800SW BCFG SCT008 BKN025 BKN090 17/15 Q1016 RESHRA= METAR EEKA 220650Z VRB02KT 9999 SCT033 12/08 Q1021= METAR EEKE 220650Z 04005KT 9999 BKN036 09/08 Q1021= METAR EETN 220720Z 04009KT 010V070 9999 FEW019 SCT049 12/08 Q1021 NOSIG= METAR EETU 220650Z 35009KT 9999 FEW014 BKN019 10/08 Q1019= METAR EPBY 220700Z 28003KT CAVOK 10/09 Q1022 = METAR EPGD 220700Z 32010KT 9999 -SHRA FEW028 SCT034TCU 12/09 Q1021 = METAR EPKK 220700Z 23005KT 9999 BKN050 08/07 Q1021 = METAR EPKT 220700Z 26004KT CAVOK 07/06 Q1022 = METAR EPLB 220700Z 30005KT 9999 SCT005 BKN045 09/08 Q1019 = METAR EPLL 220700Z 27003KT 240V320 0250 R25/0550N FG VV002 07/07 Q1021 = METAR EPMO 220700Z 33005KT 300V360 CAVOK 10/08 Q1020 = METAR EPPO 220700Z 33003KT 290V360 CAVOK 11/07 Q1023 = METAR EPRA 220700Z 32005KT 290V350 9999 SCT009 10/08 Q1020= METAR EPRZ 220700Z 28010KT 9999 FEW008 BKN035 08/07 Q1019 = METAR EPSC 220700Z VRB01KT CAVOK 11/08 Q1023 = METAR EPSY 220700Z 32008KT CAVOK 11/08 Q1020= METAR EPWA 220700Z 30005KT CAVOK 10/08 Q1020 NOSIG= METAR EPWR 220700Z 30005KT CAVOK 09/07 Q1023 = METAR EPZG 220700Z VRB01KT CAVOK 10/06 Q1024 = METAR EVLA 220720Z AUTO 06005KT 030V090 9999 NCD 12/10 Q1020= METAR EVRA 220720Z 04008KT 9999 SCT024 OVC039 11/08 Q1019 NOSIG= METAR EVVA 220720Z AUTO VRB03KT CAVOK 13/10 Q1020= METAR EYKA 220720Z 34004KT 300V020 9999 BKN008 OVC038 09/08 Q1018= METAR EYPA 220720Z 05009KT 020V080 CAVOK 12/10 Q1020= METAR EYSA 220720Z 34007KT 9999 FEW023 BKN034 10/08 Q1019 BLU NOSIG= METAR EYVI 220720Z 34008KT 7000 OVC004 08/07 Q1017 BECMG BKN005= METAR LBBG 220700Z 31006KT 280V340 CAVOK 16/09 Q1017 NOSIG= METAR LBGO 220700Z AUTO 29006KT 260V320 9999 NCD 14/08 Q1018 NOSIG= METAR LBPD 220700Z AUTO 30012KT 9999 NCD 16/08 Q1018 NOSIG= METAR LBSF 220700Z 32005KT 280V360 CAVOK 11/06 Q1019 NOSIG= METAR LBWN 220700Z VRB04KT CAVOK 15/10 Q1017 NOSIG= METAR LHBP 220700Z VRB03KT 9999 FEW048 SCT052 12/09 Q1021 NOSIG= METAR LHDC 220645Z 03006KT CAVOK 11/06 Q1020 NOSIG= METAR LHKE 220645Z 07006KT 030V100 CAVOK 13/07 Q1020 NOSIG RMK BLU= METAR LHPA 220645Z 36006KT 3000 BR SCT002 10/09 Q1021 REFG BECMG 6000 NSW RMK YLO= METAR LHPP 220645Z 29001KT 9999 FEW013 SCT083 12/09 Q1021= METAR LHPR 220645Z 35006KT 320V030 CAVOK 11/10 Q1021 RMK BLU= METAR LHSM 220645Z 01006KT CAVOK 12/09 Q1021= METAR LHSN 220645Z 06006KT 030V100 CAVOK 13/08 Q1020 NOSIG RMK BLU= METAR LHUD 220645Z 32003KT 9999 FEW008 SCT083 12/10 Q1020= METAR LKCV 220700Z VRB01KT 8000 NSC 07/07 Q1024 NOSIG= METAR LKKB 220700Z VRB02KT CAVOK 11/08 Q1024 NOSIG= METAR LKKU 220700Z 04004KT 360V080 9999 FEW008 09/06 Q1023= METAR LKKV 220700Z VRB02KT 0300 R29/0500 FG BKN002 08/07 Q1023= METAR LKLN 220700Z AUTO 32001KT 8000 OVC006 11/09 Q1023= METAR LKMT 220700Z VRB02KT 3000 BR NSC 09/08 Q1023 BECMG 6000 NSW= METAR LKNA 220700Z 33004KT CAVOK 10/05 Q1023 NOSIG= METAR LKPD 220700Z VRB02KT 8000 NSC 08/05 Q1023 NOSIG= METAR LKPR 220700Z VRB02KT CAVOK 10/08 Q1023 NOSIG= METAR LKTB 220700Z 31004KT 270V330 CAVOK 11/07 Q1023 NOSIG= METAR LKVO 220700Z 11003KT 080V140 CAVOK 11/07 Q1023= METAR LQBK 220700Z 18003KT 9999 FEW013 12/10 Q1021 NOSIG= METAR LQMO 220700Z 13004KT 9999 FEW050 15/07 Q1016= METAR LQSA 220700Z VRB02KT 3500 BR SCT007 BKN015 09/07 Q1022 BECMG NSW= METAR LQTZ 220700Z VRB01KT 0350 R09/0325N FG OVC002 08/08 Q1021= METAR LRAR 220700Z 16006KT 9999 -SHRA FEW006 SCT010 SCT035CB 10/09 Q1020 R09/19//95= METAR LRBC 220700Z 14003KT 060V200 CAVOK 13/08 Q1018= METAR LRBM 220700Z 18002KT 140V240 9999 FEW010 07/06 Q1020= METAR LRBS 220700Z VRB01KT 3000 BR FEW003 11/10 Q1019 R07/29//95 BECMG 5000 SCT005= METAR LRCK 220700Z 35008KT CAVOK 15/06 Q1017 NOSIG= METAR LRCL 220700Z 26008KT CAVOK 11/04 Q1019= METAR LRCV 220700Z VRB01KT 3000 BR SCT001 BKN002 11/11 Q1018= METAR LRIA 220700Z 26005KT 220V300 CAVOK 12/04 Q1017= METAR LROD 220700Z 00000KT CAVOK 12/08 Q1020= METAR COR LROP 220700Z VRB02KT CAVOK 11/10 Q1019 R08R/29//95 NOSIG= METAR LRSB 220700Z VRB02KT 9999 FEW080 11/07 Q1019= METAR LRSM 220700Z VRB02KT CAVOK 08/07 Q1020= METAR LRSV 220700Z 30012KT CAVOK 09/05 Q1016= METAR LRTC 220700Z 32008KT CAVOK 13/08 Q1017= METAR LRTM 220700Z 00000KT 2500 BR SCT001 BKN003 07/06 Q1019= METAR LRTR 220700Z VRB01KT 8000 -SHRA SCT004 SCT045CB 10/09 Q1020 R11/29//95 NOSIG= METAR LUBM 220700Z 27014KT CAVOK 13/06 Q1015 R25/CLRD65= METAR LUKK 220730Z 29015KT CAVOK 14/06 Q1015 R26/CLRD// NOSIG= METAR LWOH 220730Z 34010KT 9999 BKN040 13/07 Q1018= METAR LWSK 220700Z 19003KT 9999 FEW033 SCT080 15/08 Q1019 NOSIG= METAR LYBE 220700Z 25006KT 230V290 CAVOK 12/10 Q1021 NOSIG= METAR LYBT 220700Z 23003KT 170V250 CAVOK 11/10 Q1020 NOSIG= METAR LYKV 220700Z VRB01KT 9999 FEW010 11/08 Q1021 NOSIG= METAR LYNI 220700Z VRB01KT CAVOK 12/07 Q1021 NOSIG= METAR LYPG 220700Z 34008KT 9999 FEW033 SCT040 19/08 Q1016 NOSIG= METAR LYTV 220700Z VRB02KT 9999 FEW040 SCT050 20/10 Q1015 NOSIG= METAR LYUZ 220700Z 31006KT 270V340 9999 FEW020 09/09 Q1020= METAR LYVR 220700Z VRB02KT CAVOK 11/09 Q1020 NOSIG= METAR LZIB 220730Z 02010KT 9999 FEW010 15/05 Q1022 NOSIG= METAR LZKZ 220730Z VRB02KT CAVOK 12/06 Q1020 NOSIG= METAR LZPP 220730Z 01012KT CAVOK 11/08 Q1022= METAR LZSL 220730Z 00000KT CAVOK 12/07 Q1021= METAR LZTT 220730Z 28009KT 250V310 9999 FEW018 BKN070 08/05 Q1020 NOSIG= METAR LZZI 220730Z 10006KT 070V130 9999 BKN008 08/08 Q1022= METAR UAAA 220700Z VRB01MPS 9999 FEW050 28/08 Q1017 R88/CLRD65 NOSIG= METAR UAAH 220700Z 08007MPS CAVOK 22/03 Q1021 R05/0///60 NOSIG RMK QFE728/0971= METAR UACC 220700Z 09003MPS 040V170 9999 SCT040 BKN230 18/01 Q1027 R04/0/0070 NOSIG RMK QFE738/0985= METAR UACK 220700Z VRB01MPS CAVOK 17/02 Q1028 R20/010070 NOSIG RMK QFE747/0996= METAR UACP 220630Z VRB01MPS 9999 BKN040 OVC100 14/06 Q1028 R05/0/0060 NOSIG RMK QFE759/1012= METAR UADD 220700Z 34004MPS 300V020 9999 NSC 24/06 Q1015 R13/0///65 NOSIG RMK QFE705/0940= METAR UAII 220700Z VRB01MPS CAVOK 32/08 Q1012 R10/0///70 NOSIG RMK QFE724/0965= METAR UAKK 220700Z 07006MPS 040V100 CAVOK 17/02 Q1026 R05/0///70 NOSIG RMK QFE722/0962= METAR UAOO 220700Z 06008MPS CAVOK 26/02 Q1015 R05/CLRD70 NOSIG RMK QFE749/0999= METAR UARR 220700Z 21006MPS 9999 BKN021CB OVC100 20/15 Q1010 R22/CLRD70 NOSIG RMK QFE754/1005= METAR UASK 220700Z 35007MPS 320V020 9999 FEW040 SCT100 19/01 Q1022 R30/0
NOSIG RMK QFE741/0988= METAR UASP 220700Z 30006MPS 9999 SCT040 19/05 Q1025 R21/0///70 NOSIG RMK QFE757/1010= METAR UASS 220700Z 36005MPS 320V040 CAVOK 18/04 Q1024 R26/0///60 NOSIG RMK QFE749/0999= METAR UATE 220700Z 36007MPS 9999 BKN018 OVC150 24/18 Q1011 R30/0///70 NOSIG RMK QFE757/1009= METAR UATG 220700Z VRB01MPS CAVOK 24/16 Q1011 R14/CLRD70 NOSIG RMK QFE760/1013= METAR UATT 220700Z 17007MPS CAVOK 26/09 Q1018 R13/CLRD70 NOSIG RMK QFE743/0991= METAR UAUU 220700Z 13006MPS CAVOK 20/06 Q1024 R15/CLRD70 NOSIG RMK QFE751/1002= METAR UBBB 220700Z 33020G30KT 9999 FEW022 24/18 Q1013 R88/CLRD// NOSIG= METAR UBBG 220700Z 34005KT 9999 FEW040 SCT083 23/13 Q1014 R30/CLRD// NOSIG = METAR UBBL 220700Z 00000KT 9999 NSC 28/18 Q1014 R33/CLRD// RMK MT OP= METAR UBBN 220700Z 23002KT 9999 SCT050 BKN100 21/09 Q1016 R14R/CLRD// NOSIG RMK MT OP QFE687= METAR UBBQ 220700Z VRB02KT 9999 NSC 23/15 Q1014 R16/CLRD// NOSIG RMK MT OP= METAR UBBY 220700Z VRB02KT 9999 SCT080 21/14 Q1017 R33/////// NOSIG RMK MT OP= METAR UBEE 220700Z 32009KT CAVOK 26/13 Q1013 R30/CLRD// NOSIG= METAR UCFL 220700Z 15004MPS 110V180 9999 FEW033 21/07 Q1023 RMK G/O= METAR UCFM 220700Z 05002MPS CAVOK 29/07 Q1015 R08/CLRD70 NOSIG= METAR UCFO 220700Z 28003MPS 240V340 CAVOK 29/10 Q1014 R12/CLRD70 NOSIG= METAR UDSG 220700Z VRB01KT 9999 FEW046CB 14/05 Q1020 R02/CLRD70 NOSIG= METAR UDYZ 220700Z 00000KT 9999 NSC 20/07 Q1017 R09/010070 NOSIG= METAR UEEE 220700Z 21002MPS 9999 SCT050CB 11/M00 Q1004 R23L/09//60 NOSIG RMK QFE745= METAR UGKO 220730Z 28004KT 240V310 9000 BKN047 20/15 Q1013 R07/09//65 NOSIG= METAR UGSB 220730Z 19004KT 130V220 9999 FEW028 SCT077 22/16 Q1015 R13/CLRD70 NOSIG= METAR UGTB 220730Z 29004KT 200V340 CAVOK 21/12 Q1017 R31L/CLRD70 NOSIG= METAR UHBB 220700Z 08002MPS 050V120 9999 FEW033 21/11 Q1008 R36/0
NOSIG RMK QFE739/0985= METAR UHHH 220700Z 22003MPS 170V250 CAVOK 21/11 Q1015 R23L/0
NOSIG RMK QFE755/1006= METAR UHMA 220700Z VRB01MPS 9999 SCT033 BKN150 03/M00 Q0997 R88/CLRD60 NOSIG RMK QFE744/0992= METAR UHMM 220700Z 22006MPS 9999 NSC 08/M00 Q1010 R10/CLRD70 NOSIG RMK QFE743= METAR UHPP 220700Z 26004MPS 9999 NSC 11/04 Q1011 R34L/CLRD70 NOSIG RMK MT OBSC QFE755/1006= METAR UHSS 220700Z 17005MPS 9999 NSC 17/13 Q1020 RMK QFE764/1018= METAR UHWW 220700Z 18004MPS 9999 SCT026 20/14 Q1018 R25L/0///70 NOSIG RMK QFE762= METAR UIAA 220700Z 27005MPS 5000 FU NSC 18/01 Q1010 R29/CLRD70 NOSIG RMK QFE699= METAR UIBB 220700Z 07003MPS 340V130 6000 NSC 15/00 Q1014 R30/CLRD60 NOSIG RMK QFE717/0957= METAR UIII 220700Z 25002MPS 200V300 CAVOK 22/09 Q1010 R12/CLRD60 NOSIG RMK QFE715/0954= METAR UIUU 220700Z 30002MPS 230V340 9999 FEW040 20/04 Q1011 R26/010095 NOSIG RMK QFE714/0952= METAR UKBB 220700Z 28002MPS 8000 -SHRA FEW006 SCT011CB OVC032 08/08 Q1011 R88/2
NOSIG= METAR UKDD 220700Z 26004MPS 220V310 CAVOK 12/07 Q1011 R26/0 NOSIG= METAR UKDE 220700Z 21004MPS 170V260 9999 SCT033 13/06 Q1013 R20/210370 NOSIG= METAR UKDR 220700Z 25004MPS CAVOK 11/05 Q1012 R36/09//70 NOSIG= METAR UKHH 220700Z 22003MPS 9999 SCT033CB BKN100 09/05 Q1010 R07/0///67 NOSIG= METAR UKKK 220700Z 31004MPS 8000 -SHRA FEW007 SCT029CB OVC036 09/08 Q1011 R26/2 NOSIG= METAR UKKM 220700Z 31005MPS 9999 SCT007 OVC029 09/08 Q1011 R33/210260 TEMPO 2100 -SHRA SCT005 BKN015CB= METAR UKLI 220700Z 29004MPS 260V320 9999 SCT014CB BKN033 09/08 Q1017 R28/0 NOSIG= METAR UKLL 220700Z 29003MPS 7000 -SHRA BKN003 BKN026CB 07/06 Q1018 R31/2
TEMPO BKN003= METAR UKLN 220700Z 30006MPS 250V360 9999 SCT033CB BKN100 10/07 Q1017 R33/09//70 NOSIG= METAR UKLR 220700Z 31005MPS 270V340 9999 BKN010 OVC100 09/07 Q1015 NOSIG= METAR UKLU 220700Z 00000MPS 9999 BKN050 09/07 Q1020 R10/0 NOSIG= METAR UKOH 220700Z 27002MPS 200V340 CAVOK 12/07 Q1015 R03/CLRD95 NOSIG= METAR UKON 220700Z 27003MPS 200V310 CAVOK 12/06 Q1014 NOSIG= METAR UKOO 220700Z 29005MPS CAVOK 13/08 Q1015 R34/0
NOSIG= METAR COR UKWW 220700Z 30004MPS 9999 -SHRA SCT012 BKN017CB 09/07 Q1013 R31/0///65 NOSIG= METAR ULAA 220700Z 04002MPS 010V080 9999 OVC016 08/06 Q1027 R08/CLRD70 NOSIG RMK QFE769/1026= METAR ULLI 220700Z 05004MPS 9999 FEW011 SCT016 11/09 Q1019 R88/2 NOSIG= METAR ULMM 220700Z 17002MPS 7000 -SHRA BKN011CB 08/05 Q1027 R31/0 NOSIG RMK QFE763= METAR ULOO 220700Z 36004MPS 330V030 P5000 BKN018 11/08 Q1017 R01/0 NOSIG RMK QFE759= METAR ULPB 220700Z AUTO 04004MPS 9999 NCD 09/06 Q1022 RMK QFE762/1017= METAR ULWC 220700Z 36005G10MPS 9999 SCT013CB 10/06 Q1014 R03/1
NOSIG RMK QFE751/1001= METAR UMBB 220700Z 32004MPS 9999 SCT006CB SCT100 09/08 Q1017 R29/CLRD// NOSIG RMK QBB190= METAR UMGG 220700Z 35005MPS 9999 -SHRA BKN006 OVC019CB 08/08 Q1010 R28/2 NOSIG RMK QBB180= METAR UMII 220700Z 36003G06MPS 9999 BKN008 BKN018CB 09/07 Q1012 R05/2 NOSIG= METAR UMKK 220700Z VRB01MPS 9999 SCT019CB 13/12 Q1020 R24/29//60 NOSIG RMK QFE764/1019= METAR UMMG 220700Z 33004G07MPS 5000 BR BKN004 OVC066 08/07 Q1018 R35/CLRD// TEMPO 2000 RMK QBB140= METAR UMMM 220700Z 35004MPS 9999 BKN011CB OVC100 10/08 Q1013 NOSIG RMK QFE740= METAR UMMS 220700Z 34004MPS 9999 -SHRA BKN008 BKN036CB 09/08 Q1013 R31/2
NOSIG= METAR UMOO 220700Z 35003MPS 9999 BKN043 OVC/// 10/09 Q1012 R31/2 NOSIG= METAR UNAA 220700Z 24002MPS 9999 -SHRA BKN041CB 14/12 Q1014 R02/2 NOSIG RMK QFE738= METAR UNBB 220700Z 31005MPS 9999 BKN028 13/07 Q1021 R24/CLRD66 NOSIG RMK QFE743= METAR UNEE 220700Z 31004MPS 3900 FU SCT033CB 15/11 Q1018 R23/CLRD60 NOSIG RMK QFE740= METAR UNKL 220700Z VRB01MPS 5000 FU SCT029 16/09 Q1015 R29/CLRD65 NOSIG RMK QFE735= METAR UNNT 220700Z 28004MPS 9999 FEW011 OVC033CB 13/09 Q1020 R25/2 R34/0 NOSIG RMK QFE755/1007= METAR UNOO 220700Z 32005MPS CAVOK 16/06 Q1026 R25/CLRD60 NOSIG RMK QFE761= METAR UNTT 220700Z 03003MPS 340V060 9999 FEW040CB 17/09 Q1018 R21/0
NOSIG RMK QFE748= METAR URFF 220700Z 22004MPS CAVOK 15/07 Q1015 R19/2 NOSIG= METAR URKA 220700Z 31002MPS CAVOK 17/05 Q1016 R04/010070 RMK QFE758/1010= METAR URKK 220700Z 24003MPS 220V280 9999 FEW063CB 14/07 Q1016 R23C/15//55 NOSIG RMK QFE759= METAR URMG 220700Z 13003MPS 100V170 CAVOK 18/09 Q1016 R08/000070 NOSIG RMK QFE747/0996= METAR URML 220700Z 35005MPS 320V020 9999 BKN/// 23/10 Q1014 R32/01//70 NOSIG RMK QFE760/1014= METAR URMM 220700Z 12004MPS 9999 OVC025 15/11 Q1016 R12/000070 NOSIG RMK QFE734/0979= METAR URMN 220700Z 11001MPS 9999 BKN013 OVC/// 13/12 Q1016 R24/110060 RMK MT OBSC QFE725= METAR URMO 220700Z 09005MPS 9999 BKN029 15/09 Q1015 R10/010070 NOSIG RMK QFE718/0957= METAR URMT 220700Z 25002MPS 9999 -SHRA BKN030CB 13/10 Q1016 R25/2 NOSIG RMK QFE723= METAR URRR 220700Z 24006MPS 9999 SCT/// 14/07 Q1013 R22/CLRD70 TEMPO 2000 BR SCT004 RMK QFE752/1003= METAR URSS 220700Z 33003MPS 9000 -SHRA BKN053CB OVC083 17/14 Q1014 R02/2 R06/2 NOSIG RMK R06/34003G09MPS QFE759= METAR URWA 220700Z 29005MPS 270V330 CAVOK 18/08 Q1014 R27/010070 NOSIG RMK QFE762/1017= METAR URWI 220700Z 24006MPS 9999 SCT/// 16/10 Q1015= METAR URWW 220700Z 26007MPS 9999 SCT025 14/08 Q1012 R24/010070 NOSIG= METAR USCC 220700Z 13003MPS 9999 -SHRA BKN030CB 14/11 Q1023 R09/2 NOSIG RMK QFE746= METAR USCM 220700Z 02001MPS 9999 SCT050CB 15/08 Q1021 R01/0 NOSIG RMK QFE727= METAR USHH 220700Z 28002MPS 230V330 9999 OVC002 10/09 Q1027 R24/010060 TEMPO 0900 FG VV001 RMK QFE767= METAR USNN 220700Z 32002MPS 4800 BR BKN011 13/11 Q1024 R03/0///65 NOSIG RMK QFE764= METAR USPP 220700Z 10006MPS 9999 -RA BKN012 10/09 Q1019 R21/2 NOSIG RMK QFE753= METAR USRR 220700Z 32003MPS 280V350 4900 BR SCT012 BKN016 13/12 Q1025 R07/19//60 TEMPO 2000 BR BKN005 RMK OBST OBSC QFE764= METAR USSS 220700Z 09004MPS 9999 BKN007 OVC020CB 10/10 Q1023 R08L/2 NOSIG RMK QFE747/0996= METAR USTR 220700Z 11003MPS 9999 SCT036 BKN070 11/06 Q1028 R21/CLRD65 NOSIG RMK QFE761/1015= METAR UTAA 220700Z 32013KT 9999 NSC 36/07 Q1008 NOSIG= METAR UTAK 220700Z 33016KT 9999 BKN019 27/20 Q1011 NOSIG= METAR UTAM 220700Z 11006KT CAVOK 31/11 Q1009 NOSIG= METAR UTAT 220700Z 10012KT CAVOK 28/10 Q1012 NOSIG= METAR UTAV 220700Z 03003KT CAVOK 31/13 Q1009 NOSIG= METAR UTDD 220700Z VRB02MPS 9999 NSC 33/08 Q1013 R09/CLRD// NOSIG RMK QFE692/0922= METAR UTDK 220700Z 20003MPS 150V230 9999 NSC 32/10 Q1012 R01/09//70 RMK QFE702/0936= METAR UTDL 220700Z 07007MPS 9999 FEW230 30/11 Q1012 88CLRD70 NOSIG RMK QFE720/0960= METAR UTDT 220700Z 28002MPS 230V320 9999 NSC 32/11 Q1011 35CLRD70 RMK QFE719/0958= METAR UTFF 220700Z 03004KT 010V080 9999 NSC 31/10 Q1013 R18/CLRD70= METAR UTFN 220700Z 19003KT 9999 NSC 30/10 Q1012 R28/CLRD70 NOSIG= METAR UTNN 220700Z 11007KT CAVOK 32/01 Q1012 R33/CLRD60 NOSIG= METAR UTNU 220700Z 06005KT CAVOK 28/08 Q1011 R31/CLRD70 NOSIG= METAR UTSA 220700Z 05006KT 020V080 9999 NSC 33/08 Q1010 R07/CLRD70 NOSIG= METAR UTSB 220700Z 03004KT CAVOK 31/11 Q1010 R01/CLRD70 NOSIG= METAR UTSK 220700Z 21004KT 140V280 CAVOK 33/07 Q1011 R16/CLRD70= METAR UTSS 220700Z 05003KT 9999 NSC 31/04 Q1013 R88/CLRD70 NOSIG= METAR UTST 220700Z 07004KT 020V120 CAVOK 34/07 Q1010 R88/CLRD70 NOSIG= METAR UTTT 220700Z 24004KT 7000 NSC 31/12 Q1012 R08L/CLRD70 NOSIG= METAR UUBC 220700Z 31004MPS 9999 -SHRA BKN008 OVC030CB 08/07 Q1005 R31/2 TEMPO 5000 -SHRA BKN006 OVC015CB RMK QFE737/0983= METAR UUBP 220700Z 33003MPS 9999 BKN018CB 09/07 Q1008 R34/1
NOSIG RMK QFE738/0984= METAR UUBW 220700Z 36005MPS 6000 -RA BKN008 OVC017 09/07 Q1003 R30/210050 NOSIG= METAR UUDD 220700Z 36005MPS 8000 -RA SCT005 OVC016 08/07 Q1003 R32L/2 R32R/2 NOSIG= METAR UUDL 220700Z 03006G11MPS 3300 -RA OVC008 08/08 Q1006 R23/2 NOSIG RMK QFE746= METAR UUEE 220700Z 36005MPS 9999 -RA OVC008 08/07 Q1004 R06L/2 R06R/2
NOSIG= METAR UUMO 220700Z 01004MPS 340V040 7000 -RA OVC008 08/07 Q1004 R08/2 NOSIG RMK QFE738/0984= METAR UUOB 220700Z 21003MPS CAVOK 11/06 Q1008 R29/0
NOSIG= METAR UUOK 220700Z 22003MPS 9000 BKN007 BKN020CB 10/08 Q1007 R30/2 NOSIG RMK QFE737/0983= METAR UUOO 220700Z 25003MPS 9999 OVC022 09/07 Q1007 R30/1
NOSIG RMK QFE741= METAR UUWW 220700Z 36005MPS 9000 -RA OVC006 08/07 Q1004 R01/2 NOSIG= METAR UUYY 220700Z 06005MPS 9999 BKN006 OVC015 08/08 Q1024 R01/19//55 NOSIG RMK QFE759/1012= METAR UWGG 220700Z 07005MPS 9999 -SHRA OVC006CB 10/09 Q1002 R36L/2 NOSIG RMK QFE745= METAR UWKD 220700Z 12006MPS 9999 BKN028CB 15/12 Q1005 R11/2/0060 NOSIG RMK QFE743/0991= METAR UWKE 220700Z 11008G13MPS CAVOK 15/11 Q1008 R03/210370 NOSIG RMK QFE739/0986= METAR UWKS 220700Z 11006MPS 3100 -RA BR OVC004 11/11 Q1004 R06/2 NOSIG RMK QFE738= METAR UWLW 220700Z 14003MPS 8000 BKN033CB 13/13 Q1004 R20/2 TEMPO VRB12MPS 2100 -TSRA BR BKN007 RMK QFE748= METAR UWOO 220700Z 17008MPS 140V200 CAVOK 28/06 Q1014 R08/CLRD65 NOSIG RMK QFE750/1000= METAR UWOR 220700Z 16004MPS CAVOK 25/12 Q1019 R07/CLRD65 NOSIG RMK QFE740/0986= METAR UWSS 220700Z 23005G10MPS 9999 BKN014 OVC050CB 12/08 Q1007 R30/010095 NOSIG RMK QFE742= METAR UWUU 220700Z 12006MPS 9999 BKN040 20/14 Q1013 R14L/1///52 NOSIG RMK QFE749/0999= METAR UWWW 220700Z 18005MPS 9999 FEW026CB 15/15 Q1006 R23/2 NOSIG RMK QFE743/0991=

Yemelyanovo Airport (KJA / UNKL)

9000m 9:55 Krat

005 at725 11:25 Krat

1 Отделен

Load Later

scheduled
2022 Apr 16

09:25 KRAT

S72548 Moscow (DME/UUDD) S7 Airlines

SCHEDULED IN 23h 10m

05h25m
2022 Apr 16

08:05 KRAT

SU2878 Blagoveschensk (BQS/UHBB) Aeroflot Russian Airlines

SCHEDULED IN 21h 50m

03h55m
2022 Apr 16

07:20 KRAT

Y7207 Norilsk (NSK/UOOO) B738 NordStar Airlines

SCHEDULED IN 21h 5m

02h50m
2022 Apr 16

07:15 KRAT

DP418 Moscow (VKO/UUWW) B738 Pobeda

SCHEDULED IN 21h

05h05m
2022 Apr 16

07:10 KRAT

UT572 Moscow (VKO/UUWW) UTair

SCHEDULED IN 20h 55m

04h55m
2022 Apr 16

06:10 KRAT

SU1481 Moscow (SVO/UUEE) Aeroflot Russian Airlines

SCHEDULED IN 19h 55m

05h05m
2022 Apr 16

05:55 KRAT

SU6574 St.Петербург (LED / ULLI) A320 Aeroflot Russian Airlines

запланирован в 19:05H

05H05M
2022 04:50 Krat

S75310 Novosibirsk (OVB / UNNT) E170 S7 Airlines

Запланированные в 18:00

01H45M
2022 апреля 15 апреля

23:45 Krat

SU6572 St.Петербург (LED / ULLI) A320 Aeroflot Russian Airlines

запланировано в 13:00 90M

05H20m
2022 23:40 Krat

SU5641 Khabarovsk (ХВ / УХХХ) Aeroflot Russian Airlines

Запланированы в 13H 25M

04H00M
2022 апреля 15:55
S75308 Novosibirsk (OVB / Unnt) A20N S7 Airlines

Запланированы в 9х 40 м

01h45m
2022 апреля 1502
2022 апреля 15

18:25 Krat

UT138 Novosibirsk (OVB / unnt) AT72 ЮТэйр

ПО РАСПИСАНИЮ 8ч 10м

01ч55м
2022 15 апр

17:50 КРАТ

SU1487 Москва (SVO/UUEE) Аэрофлот Российские Авиалинии06 9.0ESTОтекать в 7H 35M

05H30M 05H30M73
2022 апреля 15:40 Krat35 17:40 Krat

SU5645 Владивосток (VVO / uhww) Aeroflot Russian Airlines

7H 25M

0536 05H00m
2022 апреля 15:35 Krat

7r806 7R806 Novy Urengoy (Nux / USMU) CRJ1 Rusline

Запланированы в 5 часов 20 м

02H40M
2022 апреля 15:15 KRAT

15:15 Krat

S75316 Novosibirsk (OVB / UNNT) E170 S7 Airlines

Запланировано в 5H

01H50M
2022 15 апр

11:35 КРАТ

УТ137 Иркутск (IKT/UIII) Utair

Запланировано в 1 час 20 м

02H35M73
2022 0025
S75306 Novosibirsk (OVB / Unnt) E170 S7 Airlines

Запланировано в 1 час 10 м

01H45M73
2022 апреля 15 11:10 Krat

SU1483 Moscow (SVO / UUEE) Aeroflot Russian Airlines

ЭСТ.Отправление в 55М

0536 05H05M
2022 апреля 15 до
2022 апреля35 11:00 Krat

U6247 Екатеринбург (SVX / USSSS) Уральские авиакомпании

Est. Отправление в 45 млн.

03H20M 03H20M
2022 апреля35 07:30 Krat

Y7207 Y7207 Norilsk (NSK / UOOO) B738 Nordstar Airlines

Запланировано 2 часа 44 м назад

02H40M
2022 апреля 15:40 KRAT

09:40 Krat

SU1485 Moscow (SVO / UUEE) B738 (RA-73100) AeroFlot Russian Airlines

посадка в 4H 18M

05H05M Live
2022 апреля
2022 апреля 09:30 Krat

SU2892 Irkutsk (IKT / UIII) (73117) Аэрофлот Российские Авиалинии

ПОСАДКА В 47м

01ч51м
2022 15 апреля

09:25 Krat

S72548 S72548 S72548 Moscow (DME / UUDD) S7 Airlines

Посадка в 4H 33M

05H22M73
2022 апреля 15

08:05 Krat

SU2878 Blagoveschensk Blagoveschensk (BQS / UHBB) — (73107) Aeroflot Russian Russian Airlines

Посадка в 1Н 16М

03H41M
2022 15 апреля

07:15 KRAT

DP418 Moscow (VKO / UUWW) B738 (RA-73235) Pobeda

Посадка в 2H 5M

05H05M
2022 апреля 15 0004 2022 апреля

07:15 Krat

DP418 Moscow (VKO / UUWW) B738 (RA-73235) Pobeda

посадка в 2H 5m

05H05M 05H05M 05H05M5 2022 апреля 15054 2022 апреля

06:25 Kraat

WZ1250 Челябинск (CEK / USCC) SU95 (RA-89137 ) Red Wings Airlines

приземлились 39 м. (RA-73109)

AeroFlot Russian Airlines

Посадка в 56 м

05H07M Live
2022 апреля 15:55 05:55 Krat

FV6574 St.Петербург (LED / ULLI) A320 (RA-70005) Rossiya — Russian Airlines

Посадка в 45 млн.

05H05M Live

Информация об аэропорте — один двигатель Airways

ОЭО7049 ЭДДФ Аэропорт Франкфурта М В З Чт Ж С 03:30 В738 Посмотреть информацию
ОЭО6383 ЭДДМ Аэропорт Мюнхена М В З Чт Ж С 03:20 А346 Посмотреть информацию
ОЭФ9260 ОМДБ Международный аэропорт Дубая М В З Чт Ж С 09:00 Б74И Посмотреть информацию
ОЭФ9371 ОМДБ Международный аэропорт Дубая М В З Чт Ж С 09:00 Б77Ф Посмотреть информацию
ОАЭ319 ОМДБ Международный аэропорт Дубая М В З Чт П С Вс 13:00 А388 Посмотреть информацию
ОЭФ9041 ПАНК Международный аэропорт Анкориджа имени Теда Стивенса М В З Чт Ж С 10:55 Б77Ф Посмотреть информацию
ОЭФ9107 ПАНК Международный аэропорт Анкориджа имени Теда Стивенса М В З Чт Ж С 18:20 Б77Ф Посмотреть информацию
ОЭФ9179 ПАНК Международный аэропорт Анкориджа имени Теда Стивенса М В З Чт Ж С 10:55 Б74И Посмотреть информацию
ОЭФ9113 ПАНК Международный аэропорт Анкориджа имени Теда Стивенса М В З Чт Ж С 18:20 Б74И Посмотреть информацию
ОЭФ9179 ПАНК Международный аэропорт Анкориджа имени Теда Стивенса М В З Чт Ж С 10:55 Б74И Посмотреть информацию
ОЭФ9113 ПАНК Международный аэропорт Анкориджа имени Теда Стивенса М В З Чт Ж С 18:20 Б74И Посмотреть информацию
ОЭФ9041 ПАНК Международный аэропорт Анкориджа имени Теда Стивенса М В З Чт Ж С 10:55 Б77Ф Посмотреть информацию
ОЭФ9041 ПАНК Международный аэропорт Анкориджа имени Теда Стивенса М В З Чт Ж С 10:55 Б77Ф Посмотреть информацию
ОЭФ9107 ПАНК Международный аэропорт Анкориджа имени Теда Стивенса М В З Чт Ж С 18:20 Б77Ф Посмотреть информацию
ОЭФ9152 ПАНК Международный аэропорт Анкориджа имени Теда Стивенса М В З Чт Ж С 10:55 Б74И Посмотреть информацию
ОЭФ9218 ПАНК Международный аэропорт Анкориджа имени Теда Стивенса М В З Чт Ж С 18:20 Б74И Посмотреть информацию
ОЭФ9329 ПАНК Международный аэропорт Анкориджа имени Теда Стивенса М В З Чт Ж С 18:20 Б74И Посмотреть информацию
ОЭФ9440 ПАНК Международный аэропорт Анкориджа имени Теда Стивенса М В З Чт Ж С 18:20 Б77Ф Посмотреть информацию
CLX8429 (А) ПАНК Международный аэропорт Анкориджа имени Теда Стивенса Вт 22:30 В744 Посмотреть информацию
ОЭО6378 РДЖББ Международный аэропорт Осака Кансай М В З Чт Ж С 22:20 А346 Посмотреть информацию
ОЭО7224 РДЖББ Международный аэропорт Осака Кансай М В З Чт Ж С 08:10 В738 Посмотреть информацию
ОЭФ9480 РКСИ Сеульский международный аэропорт Инчхон М В З Чт Ж С 20:10 ДК3Ф Посмотреть информацию
ОЭФ1036 РКСИ Сеульский международный аэропорт Инчхон М В З Чт Ж С 20:10 МД11 Посмотреть информацию
ОЭФ1166 РКСИ Сеульский международный аэропорт Инчхон М В З Чт Ж С 20:10 DC6 Посмотреть информацию
ОЭФ1296 РКСИ Сеульский международный аэропорт Инчхон М В З Чт Ж С 20:10 ДС4 Посмотреть информацию
ОЭФ1426 РКСИ Сеульский международный аэропорт Инчхон М В З Чт Ж С 20:10 Б73Ф Посмотреть информацию
GEC8384 (1С) РКСИ Сеульский международный аэропорт Инчхон Т Ч С 12:40 Б77Л Посмотреть информацию
GEC8384 (2С) РКСИ Сеульский международный аэропорт Инчхон М 12:25 Б77Л Посмотреть информацию
GEC8386 (1С) РКСИ Сеульский международный аэропорт Инчхон Вт Ф Су 12:40 Б77Л Посмотреть информацию
CLX6353 (А) РКСИ Сеульский международный аэропорт Инчхон Вт 10:30 В748 Посмотреть информацию
CLX9422 (А) РКСИ Сеульский международный аэропорт Инчхон Вт 10:30 В748 Посмотреть информацию
ОЕС88041 ВХХХ Аэропорт Кай Так Вс М Т З Чт Ф С 00:00 UTC В748 Посмотреть информацию
ОЕС88042 ВХХХ Аэропорт Кай Так Вс М Т З Чт Ф С 00:00 UTC В748 Посмотреть информацию
ОЭФ9019 ЗСПД Шанхайский международный аэропорт Пудун М В З Чт Ж С 20:00 Б77Ф Посмотреть информацию
ОЭФ9201 ЗСПД Шанхайский международный аэропорт Пудун М В З Чт Ж С 20:00 Б74И Посмотреть информацию
ОЭФ9201 ЗСПД Шанхайский международный аэропорт Пудун М В З Чт Ж С 20:00 Б74И Посмотреть информацию
ОЭФ9019 ЗСПД Шанхайский международный аэропорт Пудун М В З Чт Ж С 20:00 Б77Ф Посмотреть информацию
ОЭФ9019 ЗСПД Шанхайский международный аэропорт Пудун М В З Чт Ж С 20:00 Б77Ф Посмотреть информацию
ОЭФ9130 ЗСПД Шанхайский международный аэропорт Пудун М В З Чт Ж С 20:00 Б74И Посмотреть информацию

Детальный вид для SUM9104 | FlightAirMap

МЧС России СУММ9104 СУХОЙ Суперджет 100-95 СУ95 Улан-Удэ, Россия (UIUU) UIUU
3234 км
, Россия (УНКЛ) УНКЛ
2228 км
МЧС России МЧС России — — Сб, 25 дек. 2021 17:57:06 +0000 25.12.2021 17:57
МЧС России СУММ9104 СУХОЙ Суперджет 100-95 СУ95 Улан-Удэ, Россия (UIUU) UIUU
4458 км
, Россия (УНКЛ) УНКЛ
3370 км
МЧС России МЧС России 00:21:18 00:21:18 Сб, 25 дек. 2021 15:35:58 +0000 25.12.2021 15:35
Сб, 25 Дек 2021 15:57:16 +0000 25.12.2021 15:57
МЧС России СУММ9104 СУХОЙ Суперджет 100-95 СУ95 Улан-Удэ, Россия (UIUU) UIUU
4458 км
, Россия (УНКЛ) УНКЛ
3370 км
МЧС России МЧС России — — Пт, 03 Дек 2021 16:59:34 +0000 12.03.2021 16:59
МЧС России СУММ9104 СУХОЙ Суперджет 100-95 СУ95 Улан-Удэ, Россия (UIUU) UIUU
4467 км
, Россия (УНКЛ) УНКЛ
3387 км
МЧС России МЧС России — — Пт, 03 Дек 2021 16:27:39 +0000 12.03.2021 16:27
МЧС России СУММ9104 СУХОЙ Суперджет 100-95 СУ95 Улан-Удэ, Россия (UIUU) UIUU
4187 км
, Россия (УНКЛ) УНКЛ
3099 км
МЧС России МЧС России 00:01:26 00:01:26 Сб, 27 Ноя 2021 12:44:01 +0000 27.11.2021 12:44
Сб, 27 Ноя 2021 12:45:27 +0000 27.11.2021 12:45
МЧС России СУММ9104 СУХОЙ Суперджет 100-95 СУ95 Улан-Удэ, Россия (UIUU) UIUU
3619 км
, Россия (УНКЛ) УНКЛ
2532 км
МЧС России МЧС России — — Сб, 27 Ноя 2021 11:58:43 +0000 27.11.2021 11:58
МЧС России СУММ9104 СУХОЙ Суперджет 100-95 СУ95 Улан-Удэ, Россия (UIUU) UIUU
1796 км
, Россия (УНКЛ) УНКЛ
738 км
МЧС России МЧС России — — Сб, 27 Ноя 2021 09:20:30 +0000 27.11.2021 9:20

METAR СОКРАЩЕНИЯ

%PDF-1.6 % 45 0 объект > эндообъект 42 0 объект >поток Версия PScript5.dll 5.2.22008-12-24T08:36:51-07:002008-12-24T07:48:52-07:002008-12-24T08:36:51-07:00application/pdf

  • МЕТАРНЫЕ СОКРАЩЕНИЯ
  • Ахмад Гораби
  • Acrobat Distiller 8.1.0 (Windows)uuid:6e620561-72f4-4c62-a979-c29cbf172957uuid:a32abe67-24c8-4a58-9aa5-d45ee3d0f834 конечный поток эндообъект 46 0 объект >/Кодировка>>>>> эндообъект 41 0 объект > эндообъект 47 0 объект > эндообъект 1 0 объект > эндообъект 4 0 объект > эндообъект 9 0 объект > эндообъект 14 0 объект >/ProcSet 39 0 R>>/Тип/Страница>> эндообъект 24 0 объект >/ProcSet 39 0 R>>/Тип/Страница>> эндообъект 25 0 объект >поток HRw Jl-MceslLɺIc6+ʬW f#7l,\’깰 [email protected]

    Международный TAF

    Доступность прогнозов по аэродрому из зарубежных мест зависит от регулярного международного обмена данными.Некоторые локации могут иногда отсутствовать. Если эта проблема не устранена, сообщите об этом по адресу [email protected]

    B6SM25KT3 05018G25KT3
    PHNL. 14/04/2022 UTC

    TAF PHNL 142335Z 1500/1606 06019G24KT P6SM SCT025 SCT050
    FM150500 07010KT P6SM SCT025 SCT040
    FM152000 06015G23KT P6SM SCT025 SCT040
    FM160500 05010KT P6SM SCT025 BKN050

    ПХЛИ 04.14.2022 UTC

    TAF PHLI 142335Z 1500/1524 07013KT P6SM VCSH SCT020 BKN050

    ФОГ 04.14.2022 UTC

    TAF PHOG 142335Z 1500/1524 06020G25KT P6SM SCT030 SCT050
    FM150800 06008KT P6SM SCT030 SCT050
    FM152000

    ФОТО 14/04/2022 UTC

    TAF PHTO 142335Z 1500/1524 07010KT P6SM VCSH SCT025 BKN035
    FM150800 24006KT P6SM VCSH SCT025 BKN035
    FM152000 03008KT P6SM VCSH SCT025 BKN035

    ПКМЖ 04.15.2022 УТК

    ТАФ ПКМЖ 150019З 1500/1524 07015КТ П6СМ-ШРА СЦТ014 БКН045 ОВК120

    КЛАКС 15/04/2022 UTC

    TAF AMD KLAX 150313Z 1503/1606 28014KT P6SM FEW250
    FM150500 24008KT P6SM FEW250
    FM151000 15004KT P6SM BKN015
    FM151500 11005KT P6SM BKN025
    FM151700 26008KT P6SM SCT025
    FM152100 26014KT P6SM SCT250
    FM160300 26008KT P6SM BKN250

    КОНТ 14/04/2022 UTC

    TAF Kont 142340Z 1500/1606 25011G17KT P6SM SKC
    FM150500 27005KT P6SM SKC
    FM152100 25010KT P6SM SCT250
    FM160500 VRB04KT P6SM SCT250

    КПМД 14/04/2022 UTC

    TAF KPMD 142336Z 1500/1524 23016G25KT P6SM SKC
    FM150500 26016KT P6SM SKC
    FM151400 26010KT P6SM SKC
    FM152000 25016G22KT P6SM SKC

    КСАН 15/04/2022 UTC

    TAF KSAN 150234Z 1503/1606 VRB04KT P6SM BKN019
    FM150310 VRB04KT P6SM SCT015
    FM150800 VRB04KT P6SM BKN015
    FM151200 19005KT P6SM BKN022
    FM151600 20005KT P6SM SCT025
    FM152000 26009KT P6SM SKC
    FM160300 VRB04KT P6SM BKN022

    КЛАС 15/04/2022 UTC

    TAF KLAS 150243Z 1503/1606 19013G22KT P6SM Nebile150 SCT200
    FM151100 21007KT P6SM Nebile250
    FM151500 VRB05KT P6SM SMOOT250
    FM152000 08007KT P6SM SMOOT250

    КОАК 14/04/2022 UTC

    TAF KOAK 142326Z 1500/1606 22011KT 6см -RA BR SCT015 BKN028
    FM150500 24009KT P6SM VCSH SCT015 SCT030
    FM150900 27006KT P6SM FEW015 SCT035
    FM151600 VRB05KT P6SM SKC
    FM152100 28009KT P6SM SKC
    FM160300 VRB05KT P6SM SKC

    КСФО 15/04/2022 UTC

    TAF KSFO 150256Z 1503/1606 24009KT P6SM VCSH SCT020 BKN035
    FM150800 27006KT P6SM FEW020 SCT035
    FM151600 VRB05KT P6SM SKC
    FM152100 28009KT P6SM SKC
    FM160400 VRB06KT P6SM SCT018 BKN100

    КСМФ 14/04/2022 UTC

    TAF KSMF 142327Z 1500/1524 17015KT P6SM -SHRA BKN020 BKN035 OVC050
    FM150200 18011KT P6SM VCSH BKN020 OVC040
    FM150900 20010KT P6SM SCT020 BKN040 OVC080
    FM151400 20008KT P6SM SCT020 BKN100

    КССК 14/04/2022 UTC

    TAF KSCK 142327Z 1500/1524 24010G15KT P6SM VCSH SCT030 OVC050
    FM150100 27010CT P6SM VCSH SCT025 BKN040
    FM150700 29008KT P6SM NETWORE020 BKN040
    FM151500 VRB04KT P6SM SMOOT020 BKN100

    КФАТ 04.14.2022 UTC

    TAF KFAT 142327Z 1500/1524 30011KT P6SM BKN060 BKN200
    FM151200 31007KT P6SM SCT100 BKN200

    КДЖФК 15/04/2022 UTC

    TAF AMD KJFK 150212Z 1502/1606 33015G23KT P6SM SCT050 BKN070
    TEMPO 1502/1503 5см -SHRA
    FM150600 32010KT P6SM SCT120
    FM150900 28005KT P6SM SKC
    FM151500 23008KT P6SM FEW250
    FM151900 22011G17KT P6SM FEW250
    FM152100 20014G26KT P6SM СКК

    КПХЛ 15/04/2022 UTC

    TAF KPHL 150258Z 1503/1606 32008KT P6SM BKN100
    FM151300 27008KT P6SM SKC
    FM151800 23015G22KT P6SM SCT250
    FM160400 20010KT P6SM SCT250 WS020 / 20040KT

    КПИТ 15/04/2022 UTC

    TAF KPIT 150253Z 1503/1606 24010KT P6SM SCT080 WS020 / 27035KT
    FM150800 24008KT P6SM SKC
    FM151400 22015G30KT P6SM SKC
    FM160000 23010KT P6SM BKN250 WS020 / 24040KT
    FM160500 25014G19KT P6SM VCSH OVC050

    КДЭН 15/04/2022 UTC

    TAF AMD KDEN 150310Z 1503/1606 32006KT P6SM FEW100 SCT220
    FM150500 18010KT P6SM FEW100
    FM151200 21011KT P6SM FEW100
    FM151700 29016G25KT P6SM FEW100
    FM152000 31016G25KT P6SM FEW100
    FM160300 04012KT P6SM FEW100
    FM160500 15010KT P6SM FEW100

    КМКИ 04.14.2022 UTC

    TAF KMCI 142322Z 1500/1524 20007KT P6SM SCT150
    FM150600 VRB05KT P6SM SCT200
    FM151500 05010KT P6SM SCT050

    КДФВ 15/04/2022 UTC

    TAF KDFW 150250Z 1503/1606 14010KT P6SM SKC
    FM151400 17015KT P6SM BKN025
    FM151800 18015G25KT P6SM BKN050
    FM160100 16010KT P6SM BKN250

    КАУС 14/04/2022 UTC

    TAF ЕВД 142323Z 1500/1606 13010G20KT P6SM FEW250
    FM150300 13007KT P6SM FEW250
    FM151000 14005KT P6SM OVC009
    FM151600 17010KT P6SM BKN015
    FM152000 18013KT P6SM BKN035
    FM160300 16012KT P6SM OVC025

    КЕЛП 04.14.2022 UTC

    TAF KELP 142322Z 1500/1524 24008KT P6SM FEW250
    FM151800 25015G25KT P6SM FEW250

    КИАХ 15/04/2022 UTC

    TAF KIAH 150300Z 1503/1606 13010KT P6SM SKC
    FM150600 10006KT P6SM SCT015 OVC060
    FM150900 10010KT P6SM FEW007 OVC015
    TEMPO 1510/1514 OVC007
    FM151400 11008KT 6см -DZ BR BKN010 OVC040
    FM152000 15012KT P6SM SCT015 BKN025
    ФМ160300 16009КТ П6СМ ОВК015

    КСАТ 14/04/2022 UTC

    TAF KSAT 142323Z 1500/1606 13012G22KT P6SM FEW060 FEW250
    FM150200 12009KT P6SM SCT250
    FM150700 12006KT P6SM OVC007
    FM151600 16009KT P6SM BKN015
    FM152000 15012KT P6SM BKN035
    FM160300 14012KT P6SM OVC025

    КТУС 04.14.2022 UTC

    TAF KTUS 142320Z 1500/1524 30009G19KT P6SM SKC
    FM150600 15005KT P6SM FEW250
    FM151700 28008G16KT P6SM SCT250

    MMCU 04.14.2022 UTC

    TAF MMCU 141704Z 1418/1518 02010KT P6SM SKC
    FM150300 23008KT P6SM BKN250

    ММНО 04.14.2022 UTC

    TAF MMHO 141630Z 1418/1518 14008KT P6SM SKC
    FM142100 24012KT P6SM SCT250
    FM150600 00000KT P6SM BKN250

    ММЛТ 14/04/2022 UTC

    TAF MMLT 141643Z 1418/1518 04014KT P6SM SCT240
    Tempo 1419/1423 04010G20KT
    FM150300 2400KT
    FM150300 24006KT P6SM SCT240
    BECMG 1507/1508 BKN260
    FM151600 15010KT P6SM BKN260

    ММСД 14/04/2022 UTC

    TAF MMSD 141643Z 1418/1518 14010KT P6SM BKN300
    Tempo 1420/1424 14015KT
    FM150300 30005KT P6SM BKN260
    FM151700 14010KT P6SM BKN260

    .

    Добавить комментарий

    Ваш адрес email не будет опубликован.

    2019 © Все права защищены. Карта сайта